<?xml version="1.0" encoding="utf-8"?>
<gpx version="1.1" creator="com.bodunov.GalileoPro/v5.4.1" xmlns:xsi="http://www.w3.org/2001/XMLSchema-instance" xmlns="http://www.topografix.com/GPX/1/1" xmlns:gom="https://gurumaps.app/gpx/v3" xsi:schemaLocation="http://www.topografix.com/GPX/1/1 http://www.topografix.com/GPX/1/1/gpx.xsd https://gurumaps.app/gpx/v3 https://gurumaps.app/gpx/v3/schema.xsd">
 <trk>
  <name>Текущий трек: 11 APR 2026 06:33</name>
  <type>TrackStyle_FFD60AC8</type>
  <extensions>
   <gom:time>2026-04-11T03:33:01.000Z</gom:time>
  </extensions>
  <trkseg>
   <trkpt lat="59.2465222462" lon="30.3079987527"><ele>73.089</ele><time>2026-04-11T03:33:01.000Z</time></trkpt>
   <trkpt lat="59.2463916561" lon="30.3079610341"><ele>72.779</ele><time>2026-04-11T03:33:13.000Z</time></trkpt>
  </trkseg>
  <trkseg>
   <trkpt lat="59.0894149544" lon="29.9763231561"><ele>86.359</ele><time>2026-04-20T19:44:49.000Z</time></trkpt>
   <trkpt lat="59.0894584565" lon="29.9763161153"><ele>83.609</ele><time>2026-04-20T19:45:17.000Z</time></trkpt>
   <trkpt lat="59.0894878769" lon="29.9763044645"><ele>79.959</ele><time>2026-04-20T19:45:42.000Z</time></trkpt>
   <trkpt lat="59.0894862844" lon="29.9762813304"><ele>79.609</ele><time>2026-04-20T19:46:16.000Z</time></trkpt>
   <trkpt lat="59.0894977676" lon="29.976290299"><ele>79.139</ele><time>2026-04-20T19:46:55.000Z</time></trkpt>
   <trkpt lat="59.0894858653" lon="29.9762869463"><ele>80.259</ele><time>2026-04-20T19:47:46.000Z</time></trkpt>
   <trkpt lat="59.0894822611" lon="29.976301447"><ele>81.739</ele><time>2026-04-20T19:48:11.000Z</time></trkpt>
   <trkpt lat="59.0895182194" lon="29.9763387464"><ele>80.509</ele><time>2026-04-20T19:49:02.000Z</time></trkpt>
   <trkpt lat="59.0894977676" lon="29.9763382435"><ele>83.329</ele><time>2026-04-20T19:49:46.000Z</time></trkpt>
   <trkpt lat="59.0894825125" lon="29.9763232399"><ele>86.159</ele><time>2026-04-20T19:50:23.000Z</time></trkpt>
   <trkpt lat="59.0894631503" lon="29.9763027043"><ele>87.519</ele><time>2026-04-20T19:50:56.000Z</time></trkpt>
   <trkpt lat="59.089461474" lon="29.976305135"><ele>87.739</ele><time>2026-04-20T19:51:37.000Z</time></trkpt>
   <trkpt lat="59.089472119" lon="29.9763046321"><ele>83.019</ele><time>2026-04-20T19:52:14.000Z</time></trkpt>
   <trkpt lat="59.0894922355" lon="29.9762975913"><ele>85.649</ele><time>2026-04-20T19:52:55.000Z</time></trkpt>
   <trkpt lat="59.0894975161" lon="29.9762700986"><ele>87.309</ele><time>2026-04-20T19:53:35.000Z</time></trkpt>
   <trkpt lat="59.0894753879" lon="29.9762996868"><ele>86.369</ele><time>2026-04-20T19:54:18.000Z</time></trkpt>
   <trkpt lat="59.0894562772" lon="29.9762865272"><ele>86.929</ele><time>2026-04-20T19:55:11.000Z</time></trkpt>
   <trkpt lat="59.0894889666" lon="29.9762771394"><ele>86.119</ele><time>2026-04-20T19:56:04.000Z</time></trkpt>
   <trkpt lat="59.0894881284" lon="29.9762941547"><ele>86.699</ele><time>2026-04-20T19:56:52.000Z</time></trkpt>
   <trkpt lat="59.0894826802" lon="29.9763130978"><ele>87.909</ele><time>2026-04-20T19:57:42.000Z</time></trkpt>
   <trkpt lat="59.0894875417" lon="29.976300022"><ele>89.019</ele><time>2026-04-20T19:58:36.000Z</time></trkpt>
   <trkpt lat="59.0894695206" lon="29.97633246"><ele>89.159</ele><time>2026-04-20T19:59:22.000Z</time></trkpt>
   <trkpt lat="59.089476729" lon="29.9763274309"><ele>92.119</ele><time>2026-04-20T20:00:13.000Z</time></trkpt>
   <trkpt lat="59.0894933252" lon="29.9762819171"><ele>87.899</ele><time>2026-04-20T20:00:57.000Z</time></trkpt>
   <trkpt lat="59.0894913135" lon="29.9763186299"><ele>88.409</ele><time>2026-04-20T20:01:41.000Z</time></trkpt>
   <trkpt lat="59.0894846918" lon="29.976336651"><ele>87.389</ele><time>2026-04-20T20:02:25.000Z</time></trkpt>
   <trkpt lat="59.0894892181" lon="29.9763238266"><ele>89.099</ele><time>2026-04-20T20:03:15.000Z</time></trkpt>
   <trkpt lat="59.0894656649" lon="29.9763211444"><ele>88.099</ele><time>2026-04-20T20:03:57.000Z</time></trkpt>
   <trkpt lat="59.0894673413" lon="29.9763170373"><ele>82.759</ele><time>2026-04-20T20:04:31.000Z</time></trkpt>
   <trkpt lat="59.0894753879" lon="29.9763141036"><ele>80.789</ele><time>2026-04-20T20:05:14.000Z</time></trkpt>
   <trkpt lat="59.0894757232" lon="29.976285689"><ele>84.049</ele><time>2026-04-20T20:05:56.000Z</time></trkpt>
   <trkpt lat="59.0894957559" lon="29.9763110023"><ele>86.259</ele><time>2026-04-20T20:06:37.000Z</time></trkpt>
   <trkpt lat="59.0894969294" lon="29.9763127625"><ele>88.389</ele><time>2026-04-20T20:07:25.000Z</time></trkpt>
   <trkpt lat="59.0894949177" lon="29.9763222341"><ele>84.519</ele><time>2026-04-20T20:08:07.000Z</time></trkpt>
   <trkpt lat="59.0895004498" lon="29.9762866948"><ele>84.389</ele><time>2026-04-20T20:08:31.000Z</time></trkpt>
   <trkpt lat="59.0895015394" lon="29.9762948253"><ele>83.759</ele><time>2026-04-20T20:09:04.000Z</time></trkpt>
   <trkpt lat="59.0895008689" lon="29.9762929812"><ele>84.139</ele><time>2026-04-20T20:09:10.000Z</time></trkpt>
   <trkpt lat="59.0895575306" lon="29.9762832582"><ele>97.359</ele><time>2026-04-20T20:11:52.000Z</time></trkpt>
   <trkpt lat="59.0895524176" lon="29.9763094098"><ele>96.679</ele><time>2026-04-20T20:12:11.000Z</time></trkpt>
   <trkpt lat="59.0894944148" lon="29.9763248325"><ele>81.099</ele><time>2026-04-20T20:12:28.000Z</time></trkpt>
   <trkpt lat="59.0894828478" lon="29.9763135169"><ele>84.369</ele><time>2026-04-20T20:12:50.000Z</time></trkpt>
   <trkpt lat="59.089474885" lon="29.9762497306"><ele>83.799</ele><time>2026-04-20T20:13:19.000Z</time></trkpt>
   <trkpt lat="59.0894780701" lon="29.9762941547"><ele>82.439</ele><time>2026-04-20T20:13:50.000Z</time></trkpt>
   <trkpt lat="59.0894826802" lon="29.9762818333"><ele>83.309</ele><time>2026-04-20T20:14:13.000Z</time></trkpt>
   <trkpt lat="59.089461474" lon="29.9762882874"><ele>82.509</ele><time>2026-04-20T20:14:37.000Z</time></trkpt>
   <trkpt lat="59.0894846918" lon="29.9762877845"><ele>82.529</ele><time>2026-04-20T20:15:02.000Z</time></trkpt>
   <trkpt lat="59.0894816743" lon="29.976319049"><ele>82.109</ele><time>2026-04-20T20:15:20.000Z</time></trkpt>
   <trkpt lat="59.0894883799" lon="29.9763543368"><ele>83.069</ele><time>2026-04-20T20:15:24.000Z</time></trkpt>
   <trkpt lat="59.0894777348" lon="29.9765568436"><ele>79.759</ele><time>2026-04-20T20:15:37.000Z</time></trkpt>
   <trkpt lat="59.0894777348" lon="29.9765759543"><ele>79.839</ele><time>2026-04-20T20:15:38.000Z</time></trkpt>
   <trkpt lat="59.089481842" lon="29.9768207059"><ele>80.509</ele><time>2026-04-20T20:15:51.000Z</time></trkpt>
   <trkpt lat="59.0894666707" lon="29.9771758471"><ele>81.299</ele><time>2026-04-20T20:16:07.000Z</time></trkpt>
   <trkpt lat="59.0894630665" lon="29.9773557227"><ele>80.019</ele><time>2026-04-20T20:16:16.000Z</time></trkpt>
   <trkpt lat="59.0894672575" lon="29.9774004821"><ele>79.869</ele><time>2026-04-20T20:16:18.000Z</time></trkpt>
   <trkpt lat="59.0894668384" lon="29.9776676972"><ele>80.519</ele><time>2026-04-20T20:16:32.000Z</time></trkpt>
   <trkpt lat="59.089473963" lon="29.9778476566"><ele>80.759</ele><time>2026-04-20T20:16:40.000Z</time></trkpt>
   <trkpt lat="59.0894500746" lon="29.9781800829"><ele>80.849</ele><time>2026-04-20T20:16:56.000Z</time></trkpt>
   <trkpt lat="59.0894307124" lon="29.9783960008"><ele>80.919</ele><time>2026-04-20T20:17:07.000Z</time></trkpt>
   <trkpt lat="59.0894579536" lon="29.9786171154"><ele>80.539</ele><time>2026-04-20T20:17:20.000Z</time></trkpt>
   <trkpt lat="59.0894325564" lon="29.9788344581"><ele>80.019</ele><time>2026-04-20T20:17:31.000Z</time></trkpt>
   <trkpt lat="59.0894462189" lon="29.9791514617"><ele>80.469</ele><time>2026-04-20T20:17:45.000Z</time></trkpt>
   <trkpt lat="59.0894461351" lon="29.9793391325"><ele>81.279</ele><time>2026-04-20T20:17:58.000Z</time></trkpt>
   <trkpt lat="59.0894537626" lon="29.9794097081"><ele>80.209</ele><time>2026-04-20T20:18:18.000Z</time></trkpt>
   <trkpt lat="59.0894477276" lon="29.9796495144"><ele>81.859</ele><time>2026-04-20T20:18:32.000Z</time></trkpt>
   <trkpt lat="59.0894380884" lon="29.9797532823"><ele>81.909</ele><time>2026-04-20T20:18:38.000Z</time></trkpt>
   <trkpt lat="59.0894550199" lon="29.9800099362"><ele>81.619</ele><time>2026-04-20T20:18:51.000Z</time></trkpt>
   <trkpt lat="59.0894883799" lon="29.980208755"><ele>81.829</ele><time>2026-04-20T20:19:03.000Z</time></trkpt>
   <trkpt lat="59.0895363243" lon="29.9802235909"><ele>81.389</ele><time>2026-04-20T20:19:17.000Z</time></trkpt>
   <trkpt lat="59.0895818381" lon="29.9802882154"><ele>76.359</ele><time>2026-04-20T20:19:38.000Z</time></trkpt>
   <trkpt lat="59.0895815866" lon="29.9803887982"><ele>78.289</ele><time>2026-04-20T20:19:57.000Z</time></trkpt>
   <trkpt lat="59.0895900523" lon="29.9804527522"><ele>78.579</ele><time>2026-04-20T20:20:19.000Z</time></trkpt>
   <trkpt lat="59.0896039663" lon="29.9805770558"><ele>78.179</ele><time>2026-04-20T20:20:31.000Z</time></trkpt>
   <trkpt lat="59.0894969294" lon="29.9806827516"><ele>78.659</ele><time>2026-04-20T20:20:46.000Z</time></trkpt>
   <trkpt lat="59.0894543493" lon="29.9807314504"><ele>79.449</ele><time>2026-04-20T20:21:06.000Z</time></trkpt>
   <trkpt lat="59.0894189777" lon="29.9808052112"><ele>79.859</ele><time>2026-04-20T20:21:22.000Z</time></trkpt>
   <trkpt lat="59.0893899763" lon="29.9808915448"><ele>80.949</ele><time>2026-04-20T20:21:43.000Z</time></trkpt>
   <trkpt lat="59.0893812591" lon="29.9810896092"><ele>81.669</ele><time>2026-04-20T20:22:20.000Z</time></trkpt>
   <trkpt lat="59.0893881323" lon="29.9812794593"><ele>83.549</ele><time>2026-04-20T20:22:38.000Z</time></trkpt>
   <trkpt lat="59.0893905631" lon="29.9813164235"><ele>83.859</ele><time>2026-04-20T20:23:07.000Z</time></trkpt>
   <trkpt lat="59.0894097576" lon="29.9813709058"><ele>82.849</ele><time>2026-04-20T20:23:30.000Z</time></trkpt>
   <trkpt lat="59.0893894734" lon="29.9815154937"><ele>81.899</ele><time>2026-04-20T20:23:59.000Z</time></trkpt>
   <trkpt lat="59.0893741345" lon="29.9816298228"><ele>82.129</ele><time>2026-04-20T20:24:15.000Z</time></trkpt>
   <trkpt lat="59.0893784093" lon="29.9816909269"><ele>82.349</ele><time>2026-04-20T20:24:47.000Z</time></trkpt>
   <trkpt lat="59.0894195644" lon="29.9817722313"><ele>80.159</ele><time>2026-04-20T20:25:11.000Z</time></trkpt>
   <trkpt lat="59.0894713646" lon="29.9817941919"><ele>79.999</ele><time>2026-04-20T20:25:23.000Z</time></trkpt>
   <trkpt lat="59.0894860329" lon="29.9819021508"><ele>80.759</ele><time>2026-04-20T20:25:39.000Z</time></trkpt>
   <trkpt lat="59.0894639885" lon="29.9820407037"><ele>81.459</ele><time>2026-04-20T20:26:01.000Z</time></trkpt>
   <trkpt lat="59.0894009566" lon="29.9820723873"><ele>80.689</ele><time>2026-04-20T20:26:26.000Z</time></trkpt>
   <trkpt lat="59.0894112664" lon="29.9821456451"><ele>80.979</ele><time>2026-04-20T20:26:57.000Z</time></trkpt>
   <trkpt lat="59.0893587118" lon="29.9823626526"><ele>80.719</ele><time>2026-04-20T20:27:18.000Z</time></trkpt>
   <trkpt lat="59.0893519225" lon="29.9824682646"><ele>81.089</ele><time>2026-04-20T20:27:41.000Z</time></trkpt>
   <trkpt lat="59.08932619" lon="29.9824418616"><ele>80.369</ele><time>2026-04-20T20:28:10.000Z</time></trkpt>
   <trkpt lat="59.0893323926" lon="29.9823536002"><ele>79.859</ele><time>2026-04-20T20:28:29.000Z</time></trkpt>
   <trkpt lat="59.0893661717" lon="29.9822395225"><ele>82.529</ele><time>2026-04-20T20:28:45.000Z</time></trkpt>
   <trkpt lat="59.0893463904" lon="29.9819998"><ele>81.569</ele><time>2026-04-20T20:29:09.000Z</time></trkpt>
   <trkpt lat="59.089327112" lon="29.9819219321"><ele>81.199</ele><time>2026-04-20T20:29:36.000Z</time></trkpt>
   <trkpt lat="59.0893047324" lon="29.981913215"><ele>81.489</ele><time>2026-04-20T20:29:59.000Z</time></trkpt>
   <trkpt lat="59.0892644154" lon="29.9820084334"><ele>82.469</ele><time>2026-04-20T20:30:15.000Z</time></trkpt>
   <trkpt lat="59.0892871304" lon="29.9819774203"><ele>81.259</ele><time>2026-04-20T20:31:21.000Z</time></trkpt>
   <trkpt lat="59.0892714562" lon="29.9819365167"><ele>79.499</ele><time>2026-04-20T20:32:48.000Z</time></trkpt>
   <trkpt lat="59.089290986" lon="29.9818661925"><ele>78.169</ele><time>2026-04-20T20:33:23.000Z</time></trkpt>
   <trkpt lat="59.0892694446" lon="29.9818897456"><ele>79.599</ele><time>2026-04-20T20:33:51.000Z</time></trkpt>
   <trkpt lat="59.089275731" lon="29.9818987143"><ele>79.669</ele><time>2026-04-20T20:34:26.000Z</time></trkpt>
   <trkpt lat="59.0892740546" lon="29.9817708902"><ele>80.109</ele><time>2026-04-20T20:34:58.000Z</time></trkpt>
   <trkpt lat="59.0892549439" lon="29.9817729019"><ele>79.519</ele><time>2026-04-20T20:35:16.000Z</time></trkpt>
   <trkpt lat="59.0892381801" lon="29.9817503546"><ele>78.499</ele><time>2026-04-20T20:35:47.000Z</time></trkpt>
   <trkpt lat="59.0892680196" lon="29.9817004823"><ele>80.319</ele><time>2026-04-20T20:36:05.000Z</time></trkpt>
   <trkpt lat="59.0892213324" lon="29.981691346"><ele>79.789</ele><time>2026-04-20T20:36:27.000Z</time></trkpt>
   <trkpt lat="59.0892032275" lon="29.9817545455"><ele>80.819</ele><time>2026-04-20T20:37:00.000Z</time></trkpt>
   <trkpt lat="59.0891891459" lon="29.9817198445"><ele>80.199</ele><time>2026-04-20T20:37:34.000Z</time></trkpt>
   <trkpt lat="59.0891931692" lon="29.9818013166"><ele>80.429</ele><time>2026-04-20T20:38:00.000Z</time></trkpt>
   <trkpt lat="59.0891854579" lon="29.9818389513"><ele>80.939</ele><time>2026-04-20T20:38:19.000Z</time></trkpt>
   <trkpt lat="59.0891793391" lon="29.9818763346"><ele>80.599</ele><time>2026-04-20T20:38:42.000Z</time></trkpt>
   <trkpt lat="59.0891867152" lon="29.9819764983"><ele>80.059</ele><time>2026-04-20T20:39:01.000Z</time></trkpt>
   <trkpt lat="59.0891712925" lon="29.9819537834"><ele>79.249</ele><time>2026-04-20T20:39:37.000Z</time></trkpt>
   <trkpt lat="59.0891856255" lon="29.9820233532"><ele>78.239</ele><time>2026-04-20T20:40:00.000Z</time></trkpt>
   <trkpt lat="59.0892060774" lon="29.9820300587"><ele>79.019</ele><time>2026-04-20T20:40:27.000Z</time></trkpt>
   <trkpt lat="59.0892132858" lon="29.9820545338"><ele>82.139</ele><time>2026-04-20T20:40:58.000Z</time></trkpt>
   <trkpt lat="59.0892212486" lon="29.9820889835"><ele>82.509</ele><time>2026-04-20T20:41:34.000Z</time></trkpt>
   <trkpt lat="59.0892123638" lon="29.9820811045"><ele>82.229</ele><time>2026-04-20T20:42:00.000Z</time></trkpt>
   <trkpt lat="59.0892123638" lon="29.9820454814"><ele>79.779</ele><time>2026-04-20T20:42:34.000Z</time></trkpt>
   <trkpt lat="59.0891870504" lon="29.9820614908"><ele>78.599</ele><time>2026-04-20T20:42:58.000Z</time></trkpt>
   <trkpt lat="59.0891560374" lon="29.9820782546"><ele>78.679</ele><time>2026-04-20T20:43:23.000Z</time></trkpt>
   <trkpt lat="59.0891357532" lon="29.9820769973"><ele>79.539</ele><time>2026-04-20T20:43:50.000Z</time></trkpt>
   <trkpt lat="59.089105746" lon="29.9823033087"><ele>79.199</ele><time>2026-04-20T20:44:25.000Z</time></trkpt>
   <trkpt lat="59.089050174" lon="29.9822802585"><ele>77.299</ele><time>2026-04-20T20:45:07.000Z</time></trkpt>
   <trkpt lat="59.0890233519" lon="29.9823237606"><ele>78.799</ele><time>2026-04-20T20:45:46.000Z</time></trkpt>
   <trkpt lat="59.0890243577" lon="29.9823390156"><ele>77.179</ele><time>2026-04-20T20:46:34.000Z</time></trkpt>
   <trkpt lat="59.0890255312" lon="29.9823486548"><ele>76.149</ele><time>2026-04-20T20:47:05.000Z</time></trkpt>
   <trkpt lat="59.0890341645" lon="29.9823510856"><ele>75.839</ele><time>2026-04-20T20:47:46.000Z</time></trkpt>
   <trkpt lat="59.0890142156" lon="29.9823638261"><ele>76.939</ele><time>2026-04-20T20:48:21.000Z</time></trkpt>
   <trkpt lat="59.0890166464" lon="29.9823997006"><ele>76.979</ele><time>2026-04-20T20:48:53.000Z</time></trkpt>
   <trkpt lat="59.0890148862" lon="29.9823877145"><ele>79.709</ele><time>2026-04-20T20:49:34.000Z</time></trkpt>
   <trkpt lat="59.0890329911" lon="29.9822973576"><ele>80.229</ele><time>2026-04-20T20:50:11.000Z</time></trkpt>
   <trkpt lat="59.0890377687" lon="29.9823222518"><ele>83.139</ele><time>2026-04-20T20:51:13.000Z</time></trkpt>
   <trkpt lat="59.0890522694" lon="29.9823271133"><ele>85.949</ele><time>2026-04-20T20:51:47.000Z</time></trkpt>
   <trkpt lat="59.088978844" lon="29.9823503312"><ele>87.219</ele><time>2026-04-20T20:52:54.000Z</time></trkpt>
   <trkpt lat="59.0890145509" lon="29.9822934181"><ele>90.179</ele><time>2026-04-20T20:53:44.000Z</time></trkpt>
   <trkpt lat="59.0890271237" lon="29.9823691067"><ele>89.829</ele><time>2026-04-20T20:54:22.000Z</time></trkpt>
   <trkpt lat="59.0890229328" lon="29.9823108524"><ele>88.129</ele><time>2026-04-20T20:55:03.000Z</time></trkpt>
   <trkpt lat="59.0890066719" lon="29.9822636623"><ele>82.279</ele><time>2026-04-20T20:55:40.000Z</time></trkpt>
   <trkpt lat="59.0890657643" lon="29.9822971899"><ele>82.269</ele><time>2026-04-20T20:56:03.000Z</time></trkpt>
   <trkpt lat="59.0889298098" lon="29.9821956013"><ele>82.479</ele><time>2026-04-20T20:56:35.000Z</time></trkpt>
   <trkpt lat="59.0889479147" lon="29.9821319826"><ele>81.729</ele><time>2026-04-20T20:57:08.000Z</time></trkpt>
   <trkpt lat="59.0888813624" lon="29.982194344"><ele>83.089</ele><time>2026-04-20T20:57:37.000Z</time></trkpt>
   <trkpt lat="59.0887731521" lon="29.9822238483"><ele>82.759</ele><time>2026-04-20T20:57:56.000Z</time></trkpt>
   <trkpt lat="59.0886960386" lon="29.9822092638"><ele>83.859</ele><time>2026-04-20T20:58:17.000Z</time></trkpt>
   <trkpt lat="59.0886201823" lon="29.9822287098"><ele>82.939</ele><time>2026-04-20T20:58:35.000Z</time></trkpt>
   <trkpt lat="59.0885357766" lon="29.9821425438"><ele>82.619</ele><time>2026-04-20T20:59:14.000Z</time></trkpt>
   <trkpt lat="59.0883324316" lon="29.9821461481"><ele>84.339</ele><time>2026-04-20T20:59:33.000Z</time></trkpt>
   <trkpt lat="59.0882020092" lon="29.9821576313"><ele>83.039</ele><time>2026-04-20T21:00:00.000Z</time></trkpt>
   <trkpt lat="59.0881417433" lon="29.9821603135"><ele>80.859</ele><time>2026-04-20T21:00:15.000Z</time></trkpt>
   <trkpt lat="59.0880031904" lon="29.9822706193"><ele>81.959</ele><time>2026-04-20T21:00:40.000Z</time></trkpt>
   <trkpt lat="59.0879555812" lon="29.9822555319"><ele>81.169</ele><time>2026-04-20T21:01:12.000Z</time></trkpt>
   <trkpt lat="59.087811161" lon="29.9823581264"><ele>79.259</ele><time>2026-04-20T21:01:41.000Z</time></trkpt>
   <trkpt lat="59.0877660664" lon="29.9824234214"><ele>79.619</ele><time>2026-04-20T21:02:01.000Z</time></trkpt>
   <trkpt lat="59.0877368136" lon="29.9824403529"><ele>79.699</ele><time>2026-04-20T21:02:36.000Z</time></trkpt>
   <trkpt lat="59.0876918866" lon="29.9824836873"><ele>81.359</ele><time>2026-04-20T21:03:01.000Z</time></trkpt>
   <trkpt lat="59.0875801558" lon="29.9824401852"><ele>86.209</ele><time>2026-04-20T21:03:35.000Z</time></trkpt>
   <trkpt lat="59.087615276" lon="29.9824853637"><ele>85.109</ele><time>2026-04-20T21:03:59.000Z</time></trkpt>
   <trkpt lat="59.0875656551" lon="29.9824563623"><ele>85.039</ele><time>2026-04-20T21:04:32.000Z</time></trkpt>
   <trkpt lat="59.0875023717" lon="29.9824596312"><ele>85.089</ele><time>2026-04-20T21:05:25.000Z</time></trkpt>
   <trkpt lat="59.0875084905" lon="29.9824928236"><ele>83.449</ele><time>2026-04-20T21:06:13.000Z</time></trkpt>
   <trkpt lat="59.0875675829" lon="29.9825105094"><ele>82.289</ele><time>2026-04-20T21:06:50.000Z</time></trkpt>
   <trkpt lat="59.0875621347" lon="29.9824876268"><ele>83.279</ele><time>2026-04-20T21:07:39.000Z</time></trkpt>
   <trkpt lat="59.0875752105" lon="29.9825219088"><ele>83.579</ele><time>2026-04-20T21:08:14.000Z</time></trkpt>
   <trkpt lat="59.0875715224" lon="29.9824149557"><ele>82.429</ele><time>2026-04-20T21:08:51.000Z</time></trkpt>
   <trkpt lat="59.0875025394" lon="29.9823477328"><ele>82.009</ele><time>2026-04-20T21:09:09.000Z</time></trkpt>
   <trkpt lat="59.0874797406" lon="29.9822650034"><ele>81.839</ele><time>2026-04-20T21:09:31.000Z</time></trkpt>
   <trkpt lat="59.0874200614" lon="29.9821543623"><ele>81.379</ele><time>2026-04-20T21:09:52.000Z</time></trkpt>
   <trkpt lat="59.0873803312" lon="29.9821134586"><ele>80.939</ele><time>2026-04-20T21:10:07.000Z</time></trkpt>
   <trkpt lat="59.0873076601" lon="29.9819759116"><ele>80.909</ele><time>2026-04-20T21:10:25.000Z</time></trkpt>
   <trkpt lat="59.0872151239" lon="29.9819612433"><ele>80.999</ele><time>2026-04-20T21:10:41.000Z</time></trkpt>
   <trkpt lat="59.0871242641" lon="29.981796036"><ele>80.159</ele><time>2026-04-20T21:11:03.000Z</time></trkpt>
   <trkpt lat="59.0870489108" lon="29.9817237001"><ele>80.419</ele><time>2026-04-20T21:11:22.000Z</time></trkpt>
   <trkpt lat="59.0869698694" lon="29.9816161603"><ele>79.689</ele><time>2026-04-20T21:12:10.000Z</time></trkpt>
   <trkpt lat="59.0869111123" lon="29.9817439843"><ele>81.029</ele><time>2026-04-20T21:12:28.000Z</time></trkpt>
   <trkpt lat="59.0868256169" lon="29.9818226904"><ele>80.839</ele><time>2026-04-20T21:12:44.000Z</time></trkpt>
   <trkpt lat="59.0868231861" lon="29.9819441442"><ele>80.389</ele><time>2026-04-20T21:13:16.000Z</time></trkpt>
   <trkpt lat="59.0867736491" lon="29.9819407076"><ele>79.049</ele><time>2026-04-20T21:13:57.000Z</time></trkpt>
   <trkpt lat="59.0867781753" lon="29.9819400371"><ele>78.549</ele><time>2026-04-20T21:14:24.000Z</time></trkpt>
   <trkpt lat="59.0867798517" lon="29.9819453177"><ele>78.409</ele><time>2026-04-20T21:15:13.000Z</time></trkpt>
   <trkpt lat="59.0867814442" lon="29.9819478322"><ele>78.859</ele><time>2026-04-20T21:15:48.000Z</time></trkpt>
   <trkpt lat="59.0867516885" lon="29.9819700443"><ele>78.209</ele><time>2026-04-20T21:16:12.000Z</time></trkpt>
   <trkpt lat="59.0866961165" lon="29.9819383607"><ele>82.059</ele><time>2026-04-20T21:17:12.000Z</time></trkpt>
   <trkpt lat="59.086743558" lon="29.9820199166"><ele>81.199</ele><time>2026-04-20T21:18:26.000Z</time></trkpt>
   <trkpt lat="59.0867193343" lon="29.9819913343"><ele>81.249</ele><time>2026-04-20T21:19:19.000Z</time></trkpt>
   <trkpt lat="59.0866753293" lon="29.9819811922"><ele>81.479</ele><time>2026-04-20T21:19:39.000Z</time></trkpt>
   <trkpt lat="59.0865712261" lon="29.981959986"><ele>81.089</ele><time>2026-04-20T21:20:11.000Z</time></trkpt>
   <trkpt lat="59.0864300749" lon="29.9819297273"><ele>79.869</ele><time>2026-04-20T21:20:31.000Z</time></trkpt>
   <trkpt lat="59.0863251334" lon="29.9818948586"><ele>80.039</ele><time>2026-04-20T21:20:45.000Z</time></trkpt>
   <trkpt lat="59.0862536358" lon="29.9818822019"><ele>79.399</ele><time>2026-04-20T21:21:03.000Z</time></trkpt>
   <trkpt lat="59.086176187" lon="29.9819200043"><ele>79.599</ele><time>2026-04-20T21:21:22.000Z</time></trkpt>
   <trkpt lat="59.0860991573" lon="29.9819107004"><ele>78.209</ele><time>2026-04-20T21:21:52.000Z</time></trkpt>
   <trkpt lat="59.086014081" lon="29.9819761631"><ele>79.239</ele><time>2026-04-20T21:22:12.000Z</time></trkpt>
   <trkpt lat="59.0859138334" lon="29.981996112"><ele>79.889</ele><time>2026-04-20T21:22:45.000Z</time></trkpt>
   <trkpt lat="59.0858411623" lon="29.9819643446"><ele>79.529</ele><time>2026-04-20T21:23:09.000Z</time></trkpt>
   <trkpt lat="59.08578668" lon="29.9819542863"><ele>80.669</ele><time>2026-04-20T21:23:39.000Z</time></trkpt>
   <trkpt lat="59.0857149309" lon="29.981913215"><ele>80.229</ele><time>2026-04-20T21:23:58.000Z</time></trkpt>
   <trkpt lat="59.0856553355" lon="29.9818608281"><ele>81.419</ele><time>2026-04-20T21:24:43.000Z</time></trkpt>
   <trkpt lat="59.0856426789" lon="29.9818651867"><ele>81.409</ele><time>2026-04-20T21:25:17.000Z</time></trkpt>
   <trkpt lat="59.085645864" lon="29.9820246105"><ele>80.279</ele><time>2026-04-20T21:25:40.000Z</time></trkpt>
   <trkpt lat="59.0856270885" lon="29.9820203357"><ele>80.269</ele><time>2026-04-20T21:26:37.000Z</time></trkpt>
   <trkpt lat="59.0856659806" lon="29.9817578983"><ele>80.779</ele><time>2026-04-20T21:27:05.000Z</time></trkpt>
   <trkpt lat="59.0856766256" lon="29.9817112949"><ele>81.669</ele><time>2026-04-20T21:27:28.000Z</time></trkpt>
   <trkpt lat="59.0856629631" lon="29.9816193454"><ele>80.519</ele><time>2026-04-20T21:28:36.000Z</time></trkpt>
   <trkpt lat="59.0856626278" lon="29.9816076946"><ele>80.029</ele><time>2026-04-20T21:29:30.000Z</time></trkpt>
   <trkpt lat="59.0856358895" lon="29.9816697207"><ele>79.909</ele><time>2026-04-20T21:30:26.000Z</time></trkpt>
   <trkpt lat="59.0855328759" lon="29.98165983"><ele>79.209</ele><time>2026-04-20T21:30:46.000Z</time></trkpt>
   <trkpt lat="59.0854363164" lon="29.9815966305"><ele>80.589</ele><time>2026-04-20T21:31:19.000Z</time></trkpt>
   <trkpt lat="59.085410584" lon="29.9815781065"><ele>81.469</ele><time>2026-04-20T21:31:55.000Z</time></trkpt>
   <trkpt lat="59.0854034593" lon="29.9815930263"><ele>83.289</ele><time>2026-04-20T21:32:20.000Z</time></trkpt>
   <trkpt lat="59.0853778107" lon="29.9815816269"><ele>84.289</ele><time>2026-04-20T21:32:53.000Z</time></trkpt>
   <trkpt lat="59.0853403436" lon="29.9814966344"><ele>90.409</ele><time>2026-04-20T21:34:08.000Z</time></trkpt>
   <trkpt lat="59.0853408465" lon="29.9815208581"><ele>90.379</ele><time>2026-04-20T21:35:13.000Z</time></trkpt>
   <trkpt lat="59.085343864" lon="29.9815507815"><ele>89.499</ele><time>2026-04-20T21:35:31.000Z</time></trkpt>
   <trkpt lat="59.085208161" lon="29.981593613"><ele>87.419</ele><time>2026-04-20T21:35:58.000Z</time></trkpt>
   <trkpt lat="59.0850846118" lon="29.9816138972"><ele>85.069</ele><time>2026-04-20T21:36:23.000Z</time></trkpt>
   <trkpt lat="59.0849597214" lon="29.9816562258"><ele>84.399</ele><time>2026-04-20T21:36:53.000Z</time></trkpt>
   <trkpt lat="59.0848967733" lon="29.9817277234"><ele>79.389</ele><time>2026-04-20T21:37:23.000Z</time></trkpt>
   <trkpt lat="59.0848543609" lon="29.9817584012"><ele>81.539</ele><time>2026-04-20T21:37:44.000Z</time></trkpt>
   <trkpt lat="59.0848227611" lon="29.9816898372"><ele>82.259</ele><time>2026-04-20T21:38:10.000Z</time></trkpt>
   <trkpt lat="59.0847697875" lon="29.98169319"><ele>83.559</ele><time>2026-04-20T21:38:35.000Z</time></trkpt>
   <trkpt lat="59.0846893212" lon="29.9817817867"><ele>82.189</ele><time>2026-04-20T21:39:09.000Z</time></trkpt>
   <trkpt lat="59.0846606551" lon="29.9818013166"><ele>81.649</ele><time>2026-04-20T21:39:32.000Z</time></trkpt>
   <trkpt lat="59.0845867267" lon="29.9818143923"><ele>81.239</ele><time>2026-04-20T21:39:50.000Z</time></trkpt>
   <trkpt lat="59.0845642632" lon="29.9818286416"><ele>81.299</ele><time>2026-04-20T21:40:06.000Z</time></trkpt>
   <trkpt lat="59.0845495111" lon="29.9818468303"><ele>80.979</ele><time>2026-04-20T21:40:41.000Z</time></trkpt>
   <trkpt lat="59.0845626706" lon="29.9819168192"><ele>80.859</ele><time>2026-04-20T21:40:58.000Z</time></trkpt>
   <trkpt lat="59.0845553784" lon="29.9819446471"><ele>80.639</ele><time>2026-04-20T21:41:21.000Z</time></trkpt>
   <trkpt lat="59.0845443143" lon="29.9819935974"><ele>80.369</ele><time>2026-04-20T21:41:37.000Z</time></trkpt>
   <trkpt lat="59.0845318252" lon="29.9819523584"><ele>81.249</ele><time>2026-04-20T21:42:14.000Z</time></trkpt>
   <trkpt lat="59.084532412" lon="29.9819125444"><ele>81.309</ele><time>2026-04-20T21:43:03.000Z</time></trkpt>
   <trkpt lat="59.0845346751" lon="29.9819124606"><ele>81.769</ele><time>2026-04-20T21:44:37.000Z</time></trkpt>
   <trkpt lat="59.0845318252" lon="29.9819194176"><ele>81.719</ele><time>2026-04-20T21:45:46.000Z</time></trkpt>
   <trkpt lat="59.0845361838" lon="29.981897457"><ele>81.999</ele><time>2026-04-20T21:46:57.000Z</time></trkpt>
   <trkpt lat="59.0845170731" lon="29.9819024023"><ele>80.949</ele><time>2026-04-20T21:47:52.000Z</time></trkpt>
   <trkpt lat="59.0844682904" lon="29.9819017318"><ele>80.509</ele><time>2026-04-20T21:48:05.000Z</time></trkpt>
   <trkpt lat="59.0844145624" lon="29.9818309047"><ele>80.469</ele><time>2026-04-20T21:48:21.000Z</time></trkpt>
   <trkpt lat="59.0843612535" lon="29.9818384484"><ele>80.449</ele><time>2026-04-20T21:48:35.000Z</time></trkpt>
   <trkpt lat="59.0842698908" lon="29.9818722275"><ele>80.539</ele><time>2026-04-20T21:48:51.000Z</time></trkpt>
   <trkpt lat="59.0842203537" lon="29.9818319943"><ele>80.439</ele><time>2026-04-20T21:49:08.000Z</time></trkpt>
   <trkpt lat="59.0841879158" lon="29.9818036635"><ele>80.699</ele><time>2026-04-20T21:49:33.000Z</time></trkpt>
   <trkpt lat="59.0841320923" lon="29.9818070162"><ele>80.199</ele><time>2026-04-20T21:49:52.000Z</time></trkpt>
   <trkpt lat="59.0840955472" lon="29.9817711417"><ele>79.439</ele><time>2026-04-20T21:50:12.000Z</time></trkpt>
   <trkpt lat="59.0840228761" lon="29.9817342613"><ele>79.449</ele><time>2026-04-20T21:50:51.000Z</time></trkpt>
   <trkpt lat="59.083951127" lon="29.9816741631"><ele>80.349</ele><time>2026-04-20T21:51:13.000Z</time></trkpt>
   <trkpt lat="59.0838136638" lon="29.9815983907"><ele>82.259</ele><time>2026-04-20T21:51:54.000Z</time></trkpt>
   <trkpt lat="59.0837684853" lon="29.9815512006"><ele>80.529</ele><time>2026-04-20T21:52:11.000Z</time></trkpt>
   <trkpt lat="59.0836897792" lon="29.9815744184"><ele>82.389</ele><time>2026-04-20T21:52:53.000Z</time></trkpt>
   <trkpt lat="59.0836783799" lon="29.9815763463"><ele>82.299</ele><time>2026-04-20T21:53:20.000Z</time></trkpt>
   <trkpt lat="59.0834433513" lon="29.9816933576"><ele>82.679</ele><time>2026-04-20T21:54:04.000Z</time></trkpt>
   <trkpt lat="59.0833203888" lon="29.981652454"><ele>84.029</ele><time>2026-04-20T21:54:41.000Z</time></trkpt>
   <trkpt lat="59.0831902178" lon="29.9817382846"><ele>83.799</ele><time>2026-04-20T21:55:02.000Z</time></trkpt>
   <trkpt lat="59.0830518326" lon="29.9817220237"><ele>84.869</ele><time>2026-04-20T21:55:43.000Z</time></trkpt>
   <trkpt lat="59.0830932392" lon="29.9817470018"><ele>84.719</ele><time>2026-04-20T21:56:25.000Z</time></trkpt>
   <trkpt lat="59.0830753857" lon="29.9817426432"><ele>85.499</ele><time>2026-04-20T21:57:40.000Z</time></trkpt>
   <trkpt lat="59.0830588734" lon="29.9816344329"><ele>85.559</ele><time>2026-04-20T21:58:10.000Z</time></trkpt>
   <trkpt lat="59.0830468873" lon="29.9815863207"><ele>84.389</ele><time>2026-04-20T21:58:30.000Z</time></trkpt>
   <trkpt lat="59.0830096716" lon="29.9814186827"><ele>86.029</ele><time>2026-04-20T21:59:17.000Z</time></trkpt>
   <trkpt lat="59.0830144493" lon="29.9814941198"><ele>85.649</ele><time>2026-04-20T21:59:34.000Z</time></trkpt>
   <trkpt lat="59.0830020441" lon="29.9814609275"><ele>86.319</ele><time>2026-04-20T22:00:44.000Z</time></trkpt>
   <trkpt lat="59.0830125215" lon="29.9814402242"><ele>86.999</ele><time>2026-04-20T22:01:40.000Z</time></trkpt>
   <trkpt lat="59.0830078276" lon="29.9815256358"><ele>83.929</ele><time>2026-04-20T22:02:28.000Z</time></trkpt>
   <trkpt lat="59.0830643216" lon="29.9816032522"><ele>86.569</ele><time>2026-04-20T22:03:24.000Z</time></trkpt>
   <trkpt lat="59.0830533413" lon="29.9815609236"><ele>87.249</ele><time>2026-04-20T22:03:49.000Z</time></trkpt>
   <trkpt lat="59.0831557682" lon="29.981485235"><ele>86.779</ele><time>2026-04-20T22:04:15.000Z</time></trkpt>
   <trkpt lat="59.0831671676" lon="29.9814895098"><ele>87.719</ele><time>2026-04-20T22:04:35.000Z</time></trkpt>
   <trkpt lat="59.0831513258" lon="29.9815279827"><ele>86.849</ele><time>2026-04-20T22:04:57.000Z</time></trkpt>
   <trkpt lat="59.0831431115" lon="29.9815402203"><ele>86.249</ele><time>2026-04-20T22:05:22.000Z</time></trkpt>
   <trkpt lat="59.0830758887" lon="29.9814360332"><ele>86.499</ele><time>2026-04-20T22:05:52.000Z</time></trkpt>
   <trkpt lat="59.0830779841" lon="29.9814097979"><ele>85.699</ele><time>2026-04-20T22:06:14.000Z</time></trkpt>
   <trkpt lat="59.0831059797" lon="29.9813947104"><ele>85.609</ele><time>2026-04-20T22:06:57.000Z</time></trkpt>
   <trkpt lat="59.0830198137" lon="29.9814796191"><ele>85.229</ele><time>2026-04-20T22:07:15.000Z</time></trkpt>
   <trkpt lat="59.0829580391" lon="29.9814795353"><ele>85.429</ele><time>2026-04-20T22:07:33.000Z</time></trkpt>
   <trkpt lat="59.0828123616" lon="29.9814853188"><ele>85.129</ele><time>2026-04-20T22:07:51.000Z</time></trkpt>
   <trkpt lat="59.0826206675" lon="29.9813662958"><ele>85.299</ele><time>2026-04-20T22:08:19.000Z</time></trkpt>
   <trkpt lat="59.0825247785" lon="29.9813361209"><ele>88.299</ele><time>2026-04-20T22:08:59.000Z</time></trkpt>
   <trkpt lat="59.082424531" lon="29.9813123163"><ele>89.649</ele><time>2026-04-20T22:09:19.000Z</time></trkpt>
   <trkpt lat="59.082377257" lon="29.9812562414"><ele>87.309</ele><time>2026-04-20T22:09:43.000Z</time></trkpt>
   <trkpt lat="59.0822385365" lon="29.9811961431"><ele>86.609</ele><time>2026-04-20T22:09:58.000Z</time></trkpt>
   <trkpt lat="59.0821500236" lon="29.9811352067"><ele>87.289</ele><time>2026-04-20T22:10:25.000Z</time></trkpt>
   <trkpt lat="59.0821310805" lon="29.9810834904"><ele>85.979</ele><time>2026-04-20T22:10:38.000Z</time></trkpt>
   <trkpt lat="59.0820611755" lon="29.9810019344"><ele>85.839</ele><time>2026-04-20T22:10:52.000Z</time></trkpt>
   <trkpt lat="59.0819495285" lon="29.9809582647"><ele>86.969</ele><time>2026-04-20T22:11:12.000Z</time></trkpt>
   <trkpt lat="59.0818688108" lon="29.9806690053"><ele>87.939</ele><time>2026-04-20T22:11:38.000Z</time></trkpt>
   <trkpt lat="59.0818149151" lon="29.980763134"><ele>89.199</ele><time>2026-04-20T22:12:21.000Z</time></trkpt>
   <trkpt lat="59.0818044378" lon="29.9808258307"><ele>87.399</ele><time>2026-04-20T22:12:30.000Z</time></trkpt>
   <trkpt lat="59.0818408152" lon="29.9808246572"><ele>85.499</ele><time>2026-04-20T22:12:45.000Z</time></trkpt>
   <trkpt lat="59.0817750173" lon="29.9808760383"><ele>87.219</ele><time>2026-04-20T22:13:22.000Z</time></trkpt>
   <trkpt lat="59.0817838183" lon="29.9809009325"><ele>87.689</ele><time>2026-04-20T22:13:47.000Z</time></trkpt>
   <trkpt lat="59.0818014203" lon="29.9809314426"><ele>86.339</ele><time>2026-04-20T22:14:23.000Z</time></trkpt>
   <trkpt lat="59.0817194453" lon="29.9809169419"><ele>87.719</ele><time>2026-04-20T22:15:25.000Z</time></trkpt>
   <trkpt lat="59.0817095546" lon="29.9809072189"><ele>88.519</ele><time>2026-04-20T22:16:17.000Z</time></trkpt>
   <trkpt lat="59.0816998316" lon="29.9809103202"><ele>86.379</ele><time>2026-04-20T22:17:03.000Z</time></trkpt>
   <trkpt lat="59.0817393104" lon="29.9808974121"><ele>85.879</ele><time>2026-04-20T22:17:36.000Z</time></trkpt>
   <trkpt lat="59.0817142485" lon="29.980872434"><ele>86.649</ele><time>2026-04-20T22:17:54.000Z</time></trkpt>
   <trkpt lat="59.0816975685" lon="29.9808937241"><ele>86.959</ele><time>2026-04-20T22:18:16.000Z</time></trkpt>
   <trkpt lat="59.0815959798" lon="29.9808834143"><ele>86.549</ele><time>2026-04-20T22:18:31.000Z</time></trkpt>
   <trkpt lat="59.0815351272" lon="29.9808446061"><ele>86.699</ele><time>2026-04-20T22:18:46.000Z</time></trkpt>
   <trkpt lat="59.081479639" lon="29.9808248248"><ele>84.369</ele><time>2026-04-20T22:19:01.000Z</time></trkpt>
   <trkpt lat="59.0813957362" lon="29.9808428459"><ele>83.659</ele><time>2026-04-20T22:19:31.000Z</time></trkpt>
   <trkpt lat="59.0813243224" lon="29.9808182869"><ele>82.379</ele><time>2026-04-20T22:19:43.000Z</time></trkpt>
   <trkpt lat="59.0812691694" lon="29.9807192967"><ele>81.829</ele><time>2026-04-20T22:19:59.000Z</time></trkpt>
   <trkpt lat="59.0812183751" lon="29.9807243258"><ele>79.709</ele><time>2026-04-20T22:20:24.000Z</time></trkpt>
   <trkpt lat="59.0811835902" lon="29.9807109986"><ele>78.859</ele><time>2026-04-20T22:20:36.000Z</time></trkpt>
   <trkpt lat="59.0811014475" lon="29.9806602043"><ele>79.369</ele><time>2026-04-20T22:20:52.000Z</time></trkpt>
   <trkpt lat="59.0810383318" lon="29.9805752118"><ele>78.759</ele><time>2026-04-20T22:21:02.000Z</time></trkpt>
   <trkpt lat="59.0809790718" lon="29.9804731202"><ele>80.209</ele><time>2026-04-20T22:21:26.000Z</time></trkpt>
   <trkpt lat="59.0809606316" lon="29.9804833461"><ele>81.599</ele><time>2026-04-20T22:21:59.000Z</time></trkpt>
   <trkpt lat="59.0809473882" lon="29.9804962542"><ele>82.229</ele><time>2026-04-20T22:22:11.000Z</time></trkpt>
   <trkpt lat="59.0808616413" lon="29.9805017863"><ele>82.949</ele><time>2026-04-20T22:22:25.000Z</time></trkpt>
   <trkpt lat="59.0807672611" lon="29.9805470486"><ele>82.289</ele><time>2026-04-20T22:22:46.000Z</time></trkpt>
   <trkpt lat="59.0806939194" lon="29.9805742897"><ele>80.289</ele><time>2026-04-20T22:23:00.000Z</time></trkpt>
   <trkpt lat="59.080615381" lon="29.9805648182"><ele>79.939</ele><time>2026-04-20T22:23:11.000Z</time></trkpt>
   <trkpt lat="59.0805391895" lon="29.9805635609"><ele>79.809</ele><time>2026-04-20T22:23:29.000Z</time></trkpt>
   <trkpt lat="59.0804660155" lon="29.980652912"><ele>79.149</ele><time>2026-04-20T22:23:40.000Z</time></trkpt>
   <trkpt lat="59.0804054143" lon="29.9806801532"><ele>80.719</ele><time>2026-04-20T22:23:58.000Z</time></trkpt>
   <trkpt lat="59.0803779217" lon="29.980827507"><ele>81.309</ele><time>2026-04-20T22:24:40.000Z</time></trkpt>
   <trkpt lat="59.0803702103" lon="29.9808061332"><ele>81.919</ele><time>2026-04-20T22:25:22.000Z</time></trkpt>
   <trkpt lat="59.0803699589" lon="29.9808102403"><ele>82.349</ele><time>2026-04-20T22:25:47.000Z</time></trkpt>
   <trkpt lat="59.0803545362" lon="29.9807674926"><ele>81.569</ele><time>2026-04-20T22:26:29.000Z</time></trkpt>
   <trkpt lat="59.0803444779" lon="29.9807792273"><ele>81.349</ele><time>2026-04-20T22:28:01.000Z</time></trkpt>
   <trkpt lat="59.0803419633" lon="29.9807612062"><ele>80.659</ele><time>2026-04-20T22:29:20.000Z</time></trkpt>
   <trkpt lat="59.0803648459" lon="29.9808917962"><ele>81.959</ele><time>2026-04-20T22:29:30.000Z</time></trkpt>
   <trkpt lat="59.0803802686" lon="29.9811261543"><ele>82.259</ele><time>2026-04-20T22:29:49.000Z</time></trkpt>
   <trkpt lat="59.0803960266" lon="29.9812349514"><ele>79.419</ele><time>2026-04-20T22:30:06.000Z</time></trkpt>
   <trkpt lat="59.080368031" lon="29.9814452533"><ele>83.249</ele><time>2026-04-20T22:30:28.000Z</time></trkpt>
   <trkpt lat="59.0803906622" lon="29.9814619333"><ele>82.359</ele><time>2026-04-20T22:30:57.000Z</time></trkpt>
   <trkpt lat="59.0803890696" lon="29.9815970496"><ele>82.169</ele><time>2026-04-20T22:31:13.000Z</time></trkpt>
   <trkpt lat="59.0803926738" lon="29.9817791045"><ele>81.569</ele><time>2026-04-20T22:31:31.000Z</time></trkpt>
   <trkpt lat="59.0803616608" lon="29.9818806932"><ele>82.299</ele><time>2026-04-20T22:31:55.000Z</time></trkpt>
   <trkpt lat="59.0803881476" lon="29.9820200004"><ele>81.609</ele><time>2026-04-20T22:32:13.000Z</time></trkpt>
   <trkpt lat="59.0804194121" lon="29.9821598106"><ele>81.399</ele><time>2026-04-20T22:32:31.000Z</time></trkpt>
   <trkpt lat="59.0803948531" lon="29.9820982036"><ele>82.929</ele><time>2026-04-20T22:32:56.000Z</time></trkpt>
   <trkpt lat="59.0803945178" lon="29.9821430467"><ele>82.139</ele><time>2026-04-20T22:33:19.000Z</time></trkpt>
   <trkpt lat="59.0804008881" lon="29.9820917495"><ele>87.439</ele><time>2026-04-20T22:34:24.000Z</time></trkpt>
   <trkpt lat="59.0803969486" lon="29.9820866365"><ele>89.919</ele><time>2026-04-20T22:35:25.000Z</time></trkpt>
   <trkpt lat="59.0803964457" lon="29.9820904922"><ele>89.339</ele><time>2026-04-20T22:36:05.000Z</time></trkpt>
   <trkpt lat="59.0804315658" lon="29.9821460642"><ele>89.129</ele><time>2026-04-20T22:36:50.000Z</time></trkpt>
   <trkpt lat="59.0804368464" lon="29.9821907398"><ele>87.049</ele><time>2026-04-20T22:37:44.000Z</time></trkpt>
   <trkpt lat="59.0804304762" lon="29.9822007142"><ele>85.259</ele><time>2026-04-20T22:38:48.000Z</time></trkpt>
   <trkpt lat="59.0804174842" lon="29.98215914"><ele>82.149</ele><time>2026-04-20T22:39:20.000Z</time></trkpt>
   <trkpt lat="59.080407426" lon="29.9821158894"><ele>79.729</ele><time>2026-04-20T22:40:13.000Z</time></trkpt>
   <trkpt lat="59.0804269558" lon="29.9821720481"><ele>81.899</ele><time>2026-04-20T22:41:05.000Z</time></trkpt>
   <trkpt lat="59.0804322364" lon="29.9822228425"><ele>82.399</ele><time>2026-04-20T22:41:38.000Z</time></trkpt>
   <trkpt lat="59.0804798456" lon="29.982186465"><ele>84.119</ele><time>2026-04-20T22:42:03.000Z</time></trkpt>
   <trkpt lat="59.0805896485" lon="29.9821303901"><ele>83.829</ele><time>2026-04-20T22:42:24.000Z</time></trkpt>
   <trkpt lat="59.0806285406" lon="29.9821939249"><ele>87.819</ele><time>2026-04-20T22:43:02.000Z</time></trkpt>
   <trkpt lat="59.0805649219" lon="29.9822171428"><ele>87.309</ele><time>2026-04-20T22:43:26.000Z</time></trkpt>
   <trkpt lat="59.0805475714" lon="29.9821753171"><ele>87.239</ele><time>2026-04-20T22:44:09.000Z</time></trkpt>
   <trkpt lat="59.0805701187" lon="29.9821722996"><ele>87.649</ele><time>2026-04-20T22:44:53.000Z</time></trkpt>
   <trkpt lat="59.080590822" lon="29.9821676057"><ele>87.349</ele><time>2026-04-20T22:45:43.000Z</time></trkpt>
   <trkpt lat="59.0805931689" lon="29.9822202441"><ele>85.499</ele><time>2026-04-20T22:46:29.000Z</time></trkpt>
   <trkpt lat="59.0806051551" lon="29.9822680209"><ele>85.479</ele><time>2026-04-20T22:47:17.000Z</time></trkpt>
   <trkpt lat="59.0806334859" lon="29.9822505027"><ele>85.119</ele><time>2026-04-20T22:47:51.000Z</time></trkpt>
   <trkpt lat="59.0807029719" lon="29.9822730501"><ele>85.219</ele><time>2026-04-20T22:48:14.000Z</time></trkpt>
   <trkpt lat="59.080777487" lon="29.9822981958"><ele>83.669</ele><time>2026-04-20T22:48:45.000Z</time></trkpt>
   <trkpt lat="59.0809164589" lon="29.9823163845"><ele>84.429</ele><time>2026-04-20T22:49:19.000Z</time></trkpt>
   <trkpt lat="59.081126258" lon="29.9823333159"><ele>84.379</ele><time>2026-04-20T22:49:37.000Z</time></trkpt>
   <trkpt lat="59.0812206382" lon="29.9824014608"><ele>84.479</ele><time>2026-04-20T22:49:56.000Z</time></trkpt>
   <trkpt lat="59.081270762" lon="29.9823085893"><ele>83.659</ele><time>2026-04-20T22:50:23.000Z</time></trkpt>
   <trkpt lat="59.0813222269" lon="29.9823064939"><ele>84.349</ele><time>2026-04-20T22:50:59.000Z</time></trkpt>
   <trkpt lat="59.0813335424" lon="29.9823349923"><ele>83.429</ele><time>2026-04-20T22:51:18.000Z</time></trkpt>
   <trkpt lat="59.0813312793" lon="29.9823566176"><ele>84.129</ele><time>2026-04-20T22:52:01.000Z</time></trkpt>
   <trkpt lat="59.081317533" lon="29.9823245988"><ele>86.279</ele><time>2026-04-20T22:52:41.000Z</time></trkpt>
   <trkpt lat="59.0813181197" lon="29.9823422846"><ele>84.339</ele><time>2026-04-20T22:53:29.000Z</time></trkpt>
   <trkpt lat="59.0813974125" lon="29.9822644167"><ele>88.059</ele><time>2026-04-20T22:54:11.000Z</time></trkpt>
   <trkpt lat="59.0814874342" lon="29.9822385166"><ele>87.809</ele><time>2026-04-20T22:54:49.000Z</time></trkpt>
   <trkpt lat="59.0814556668" lon="29.9822787498"><ele>85.939</ele><time>2026-04-20T22:55:30.000Z</time></trkpt>
   <trkpt lat="59.081525488" lon="29.9822802585"><ele>83.049</ele><time>2026-04-20T22:56:36.000Z</time></trkpt>
   <trkpt lat="59.0815178605" lon="29.9823297117"><ele>82.319</ele><time>2026-04-20T22:57:25.000Z</time></trkpt>
   <trkpt lat="59.0814736879" lon="29.9823384289"><ele>82.709</ele><time>2026-04-20T22:58:03.000Z</time></trkpt>
   <trkpt lat="59.0814603606" lon="29.9824395147"><ele>82.809</ele><time>2026-04-20T22:58:34.000Z</time></trkpt>
   <trkpt lat="59.0815279188" lon="29.9823331483"><ele>82.999</ele><time>2026-04-20T22:59:07.000Z</time></trkpt>
   <trkpt lat="59.081525488" lon="29.9823688552"><ele>85.889</ele><time>2026-04-20T22:59:33.000Z</time></trkpt>
   <trkpt lat="59.0815731811" lon="29.9824151233"><ele>87.249</ele><time>2026-04-20T22:59:56.000Z</time></trkpt>
   <trkpt lat="59.0816557428" lon="29.9825031333"><ele>87.829</ele><time>2026-04-20T23:00:33.000Z</time></trkpt>
   <trkpt lat="59.0817657134" lon="29.9826045543"><ele>86.559</ele><time>2026-04-20T23:01:09.000Z</time></trkpt>
   <trkpt lat="59.0818200281" lon="29.9825705238"><ele>84.979</ele><time>2026-04-20T23:01:49.000Z</time></trkpt>
   <trkpt lat="59.0819318427" lon="29.9826114275"><ele>86.189</ele><time>2026-04-20T23:02:17.000Z</time></trkpt>
   <trkpt lat="59.0820441602" lon="29.9828597833"><ele>88.469</ele><time>2026-04-20T23:02:42.000Z</time></trkpt>
   <trkpt lat="59.0820955413" lon="29.9829058838"><ele>85.879</ele><time>2026-04-20T23:03:10.000Z</time></trkpt>
   <trkpt lat="59.0820952898" lon="29.9829109967"><ele>85.139</ele><time>2026-04-20T23:03:32.000Z</time></trkpt>
   <trkpt lat="59.0820927752" lon="29.9829340469"><ele>84.599</ele><time>2026-04-20T23:03:58.000Z</time></trkpt>
   <trkpt lat="59.0821858144" lon="29.9829405848"><ele>84.399</ele><time>2026-04-20T23:04:32.000Z</time></trkpt>
   <trkpt lat="59.0822206831" lon="29.9828985077"><ele>83.999</ele><time>2026-04-20T23:05:00.000Z</time></trkpt>
   <trkpt lat="59.0822390394" lon="29.9829120864"><ele>82.459</ele><time>2026-04-20T23:05:04.000Z</time></trkpt>
   <trkpt lat="59.0823017361" lon="29.9828120903"><ele>82.839</ele><time>2026-04-20T23:05:23.000Z</time></trkpt>
   <trkpt lat="59.0823319109" lon="29.9828082346"><ele>81.839</ele><time>2026-04-20T23:05:51.000Z</time></trkpt>
   <trkpt lat="59.0823571405" lon="29.9827498965"><ele>81.359</ele><time>2026-04-20T23:06:12.000Z</time></trkpt>
   <trkpt lat="59.0823908357" lon="29.9827373237"><ele>80.499</ele><time>2026-04-20T23:06:30.000Z</time></trkpt>
   <trkpt lat="59.0823913386" lon="29.9827156146"><ele>78.769</ele><time>2026-04-20T23:06:45.000Z</time></trkpt>
   <trkpt lat="59.0824192504" lon="29.9826706037"><ele>78.409</ele><time>2026-04-20T23:07:17.000Z</time></trkpt>
   <trkpt lat="59.0824377744" lon="29.9826346454"><ele>77.649</ele><time>2026-04-20T23:07:45.000Z</time></trkpt>
   <trkpt lat="59.0824778399" lon="29.9825776484"><ele>78.119</ele><time>2026-04-20T23:08:03.000Z</time></trkpt>
   <trkpt lat="59.082531987" lon="29.9825493176"><ele>76.209</ele><time>2026-04-20T23:08:16.000Z</time></trkpt>
   <trkpt lat="59.0825354235" lon="29.9825113476"><ele>75.999</ele><time>2026-04-20T23:08:32.000Z</time></trkpt>
   <trkpt lat="59.0825451465" lon="29.9825478927"><ele>77.699</ele><time>2026-04-20T23:09:20.000Z</time></trkpt>
   <trkpt lat="59.0825374352" lon="29.9825428635"><ele>79.659</ele><time>2026-04-20T23:09:50.000Z</time></trkpt>
   <trkpt lat="59.0825517683" lon="29.9824964278"><ele>78.559</ele><time>2026-04-20T23:10:50.000Z</time></trkpt>
   <trkpt lat="59.0825501757" lon="29.9824913986"><ele>79.789</ele><time>2026-04-20T23:12:01.000Z</time></trkpt>
   <trkpt lat="59.0825496728" lon="29.9824872077"><ele>79.549</ele><time>2026-04-20T23:12:59.000Z</time></trkpt>
   <trkpt lat="59.08254632" lon="29.9825056479"><ele>79.759</ele><time>2026-04-20T23:13:45.000Z</time></trkpt>
   <trkpt lat="59.0825521873" lon="29.9825260997"><ele>80.069</ele><time>2026-04-20T23:13:50.000Z</time></trkpt>
   <trkpt lat="59.0826207513" lon="29.9825553526"><ele>82.749</ele><time>2026-04-20T23:14:03.000Z</time></trkpt>
   <trkpt lat="59.0826751499" lon="29.9825947475"><ele>82.399</ele><time>2026-04-20T23:14:18.000Z</time></trkpt>
   <trkpt lat="59.0827324821" lon="29.9826011178"><ele>83.119</ele><time>2026-04-20T23:14:30.000Z</time></trkpt>
   <trkpt lat="59.0827341585" lon="29.9825981841"><ele>83.679</ele><time>2026-04-20T23:14:46.000Z</time></trkpt>
   <trkpt lat="59.0827969389" lon="29.9825550173"><ele>83.169</ele><time>2026-04-20T23:15:03.000Z</time></trkpt>
   <trkpt lat="59.0828225875" lon="29.9825756368"><ele>82.469</ele><time>2026-04-20T23:15:25.000Z</time></trkpt>
   <trkpt lat="59.0828448834" lon="29.9826115951"><ele>82.479</ele><time>2026-04-20T23:15:46.000Z</time></trkpt>
   <trkpt lat="59.0828971865" lon="29.9825637345"><ele>81.679</ele><time>2026-04-20T23:16:11.000Z</time></trkpt>
   <trkpt lat="59.0829810893" lon="29.9825786543"><ele>81.339</ele><time>2026-04-20T23:16:25.000Z</time></trkpt>
   <trkpt lat="59.0830356555" lon="29.9826029618"><ele>78.509</ele><time>2026-04-20T23:16:42.000Z</time></trkpt>
   <trkpt lat="59.0830977654" lon="29.9826316279"><ele>82.109</ele><time>2026-04-20T23:16:55.000Z</time></trkpt>
   <trkpt lat="59.0831119308" lon="29.9826470506"><ele>80.099</ele><time>2026-04-20T23:17:15.000Z</time></trkpt>
   <trkpt lat="59.0831682572" lon="29.9826975935"><ele>79.739</ele><time>2026-04-20T23:17:43.000Z</time></trkpt>
   <trkpt lat="59.0832125137" lon="29.9826931511"><ele>79.319</ele><time>2026-04-20T23:18:09.000Z</time></trkpt>
   <trkpt lat="59.0832419342" lon="29.9826742918"><ele>80.069</ele><time>2026-04-20T23:18:30.000Z</time></trkpt>
   <trkpt lat="59.0832795689" lon="29.9826530017"><ele>82.519</ele><time>2026-04-20T23:18:52.000Z</time></trkpt>
   <trkpt lat="59.083279066" lon="29.9826390878"><ele>81.669</ele><time>2026-04-20T23:18:57.000Z</time></trkpt>
   <trkpt lat="59.0832667446" lon="29.9826262635"><ele>82.869</ele><time>2026-04-20T23:19:13.000Z</time></trkpt>
   <trkpt lat="59.0833206402" lon="29.9826669995"><ele>81.779</ele><time>2026-04-20T23:19:41.000Z</time></trkpt>
   <trkpt lat="59.0833857676" lon="29.982683931"><ele>81.579</ele><time>2026-04-20T23:20:03.000Z</time></trkpt>
   <trkpt lat="59.0834438542" lon="29.9826724478"><ele>83.019</ele><time>2026-04-20T23:20:21.000Z</time></trkpt>
   <trkpt lat="59.0834979175" lon="29.9826778122"><ele>81.319</ele><time>2026-04-20T23:20:45.000Z</time></trkpt>
   <trkpt lat="59.083534714" lon="29.9826674186"><ele>79.529</ele><time>2026-04-20T23:21:02.000Z</time></trkpt>
   <trkpt lat="59.0835677387" lon="29.9827203922"><ele>78.689</ele><time>2026-04-20T23:21:18.000Z</time></trkpt>
   <trkpt lat="59.0836203771" lon="29.9827849329"><ele>79.859</ele><time>2026-04-20T23:21:33.000Z</time></trkpt>
   <trkpt lat="59.0836570898" lon="29.9827902135"><ele>80.369</ele><time>2026-04-20T23:21:43.000Z</time></trkpt>
   <trkpt lat="59.0836674834" lon="29.9827813287"><ele>82.009</ele><time>2026-04-20T23:22:01.000Z</time></trkpt>
   <trkpt lat="59.0836573413" lon="29.9827611283"><ele>81.189</ele><time>2026-04-20T23:22:38.000Z</time></trkpt>
   <trkpt lat="59.0836529827" lon="29.9827654031"><ele>80.329</ele><time>2026-04-20T23:23:16.000Z</time></trkpt>
   <trkpt lat="59.0836431759" lon="29.9827643972"><ele>80.219</ele><time>2026-04-20T23:24:51.000Z</time></trkpt>
   <trkpt lat="59.0836699141" lon="29.9827768024"><ele>80.389</ele><time>2026-04-20T23:25:38.000Z</time></trkpt>
   <trkpt lat="59.0837286713" lon="29.9828420137"><ele>80.139</ele><time>2026-04-20T23:25:50.000Z</time></trkpt>
   <trkpt lat="59.0837515539" lon="29.9828954064"><ele>80.259</ele><time>2026-04-20T23:26:07.000Z</time></trkpt>
   <trkpt lat="59.0837485364" lon="29.9829726875"><ele>80.819</ele><time>2026-04-20T23:26:27.000Z</time></trkpt>
   <trkpt lat="59.0837966485" lon="29.983021554"><ele>80.549</ele><time>2026-04-20T23:26:46.000Z</time></trkpt>
   <trkpt lat="59.0838583393" lon="29.983090118"><ele>85.509</ele><time>2026-04-20T23:26:59.000Z</time></trkpt>
   <trkpt lat="59.083898321" lon="29.9830836639"><ele>84.389</ele><time>2026-04-20T23:27:11.000Z</time></trkpt>
   <trkpt lat="59.0839145819" lon="29.9830871843"><ele>81.249</ele><time>2026-04-20T23:27:25.000Z</time></trkpt>
   <trkpt lat="59.0839490315" lon="29.9831073009"><ele>81.239</ele><time>2026-04-20T23:27:36.000Z</time></trkpt>
   <trkpt lat="59.0840147456" lon="29.9831595201"><ele>80.249</ele><time>2026-04-20T23:27:49.000Z</time></trkpt>
   <trkpt lat="59.0840489438" lon="29.9831850011"><ele>81.589</ele><time>2026-04-20T23:28:02.000Z</time></trkpt>
   <trkpt lat="59.0841051864" lon="29.98325499"><ele>81.839</ele><time>2026-04-20T23:28:12.000Z</time></trkpt>
   <trkpt lat="59.0841815455" lon="29.9832477816"><ele>82.359</ele><time>2026-04-20T23:28:25.000Z</time></trkpt>
   <trkpt lat="59.0842300767" lon="29.9832709156"><ele>80.409</ele><time>2026-04-20T23:28:35.000Z</time></trkpt>
   <trkpt lat="59.0842571503" lon="29.9832675629"><ele>81.109</ele><time>2026-04-20T23:28:50.000Z</time></trkpt>
   <trkpt lat="59.08428414" lon="29.983281393"><ele>80.789</ele><time>2026-04-20T23:29:08.000Z</time></trkpt>
   <trkpt lat="59.0843371136" lon="29.9832927086"><ele>79.389</ele><time>2026-04-20T23:29:24.000Z</time></trkpt>
   <trkpt lat="59.0843699707" lon="29.983281393"><ele>78.549</ele><time>2026-04-20T23:29:40.000Z</time></trkpt>
   <trkpt lat="59.0844269676" lon="29.9833319359"><ele>79.389</ele><time>2026-04-20T23:29:59.000Z</time></trkpt>
   <trkpt lat="59.0844825396" lon="29.9833511305"><ele>79.429</ele><time>2026-04-20T23:30:19.000Z</time></trkpt>
   <trkpt lat="59.084537944" lon="29.9833126575"><ele>79.659</ele><time>2026-04-20T23:30:41.000Z</time></trkpt>
   <trkpt lat="59.0846139679" lon="29.9833181896"><ele>79.619</ele><time>2026-04-20T23:31:02.000Z</time></trkpt>
   <trkpt lat="59.0846742338" lon="29.9832992465"><ele>79.709</ele><time>2026-04-20T23:31:17.000Z</time></trkpt>
   <trkpt lat="59.0846539496" lon="29.983256834"><ele>78.189</ele><time>2026-04-20T23:31:47.000Z</time></trkpt>
   <trkpt lat="59.0846693723" lon="29.9832414952"><ele>77.469</ele><time>2026-04-20T23:32:11.000Z</time></trkpt>
   <trkpt lat="59.0846848788" lon="29.9832917028"><ele>78.139</ele><time>2026-04-20T23:32:59.000Z</time></trkpt>
   <trkpt lat="59.0846839568" lon="29.9832536489"><ele>78.459</ele><time>2026-04-20T23:34:21.000Z</time></trkpt>
   <trkpt lat="59.0846767483" lon="29.9832986597"><ele>79.519</ele><time>2026-04-20T23:35:19.000Z</time></trkpt>
   <trkpt lat="59.0846930092" lon="29.9832195346"><ele>79.649</ele><time>2026-04-20T23:35:47.000Z</time></trkpt>
   <trkpt lat="59.0847143831" lon="29.983160526"><ele>79.569</ele><time>2026-04-20T23:36:05.000Z</time></trkpt>
   <trkpt lat="59.0847566279" lon="29.9832145054"><ele>79.739</ele><time>2026-04-20T23:36:30.000Z</time></trkpt>
   <trkpt lat="59.0848096853" lon="29.9832559958"><ele>79.799</ele><time>2026-04-20T23:36:57.000Z</time></trkpt>
   <trkpt lat="59.0848555343" lon="29.983212829"><ele>78.199</ele><time>2026-04-20T23:37:13.000Z</time></trkpt>
   <trkpt lat="59.084895516" lon="29.983199418"><ele>80.599</ele><time>2026-04-20T23:37:38.000Z</time></trkpt>
   <trkpt lat="59.0849121122" lon="29.9832337"><ele>81.059</ele><time>2026-04-20T23:37:47.000Z</time></trkpt>
   <trkpt lat="59.0849185663" lon="29.9832293414"><ele>84.169</ele><time>2026-04-20T23:38:04.000Z</time></trkpt>
   <trkpt lat="59.0849630742" lon="29.9832562473"><ele>82.239</ele><time>2026-04-20T23:38:35.000Z</time></trkpt>
   <trkpt lat="59.0850728771" lon="29.9832601868"><ele>81.319</ele><time>2026-04-20T23:39:02.000Z</time></trkpt>
   <trkpt lat="59.0851591269" lon="29.9832838238"><ele>79.949</ele><time>2026-04-20T23:39:25.000Z</time></trkpt>
   <trkpt lat="59.0851821771" lon="29.9834043555"><ele>80.739</ele><time>2026-04-20T23:39:48.000Z</time></trkpt>
   <trkpt lat="59.0852630625" lon="29.9834375479"><ele>81.649</ele><time>2026-04-20T23:40:06.000Z</time></trkpt>
   <trkpt lat="59.0852992723" lon="29.9834406492"><ele>83.129</ele><time>2026-04-20T23:40:38.000Z</time></trkpt>
   <trkpt lat="59.0852555188" lon="29.9834696506"><ele>83.959</ele><time>2026-04-20T23:41:07.000Z</time></trkpt>
   <trkpt lat="59.085224841" lon="29.9834729195"><ele>88.229</ele><time>2026-04-20T23:42:02.000Z</time></trkpt>
   <trkpt lat="59.0852347316" lon="29.9835292459"><ele>92.189</ele><time>2026-04-20T23:43:00.000Z</time></trkpt>
   <trkpt lat="59.0852562731" lon="29.9835478537"><ele>91.979</ele><time>2026-04-20T23:43:22.000Z</time></trkpt>
   <trkpt lat="59.0852367433" lon="29.9835325987"><ele>89.399</ele><time>2026-04-20T23:43:54.000Z</time></trkpt>
   <trkpt lat="59.0852570275" lon="29.9835007474"><ele>89.519</ele><time>2026-04-20T23:44:27.000Z</time></trkpt>
   <trkpt lat="59.0853045529" lon="29.9835260608"><ele>90.379</ele><time>2026-04-20T23:45:05.000Z</time></trkpt>
   <trkpt lat="59.0852973445" lon="29.9835426569"><ele>89.099</ele><time>2026-04-20T23:45:43.000Z</time></trkpt>
   <trkpt lat="59.0853117613" lon="29.9835818004"><ele>91.589</ele><time>2026-04-20T23:46:11.000Z</time></trkpt>
   <trkpt lat="59.0852962548" lon="29.9835747596"><ele>89.159</ele><time>2026-04-20T23:46:39.000Z</time></trkpt>
   <trkpt lat="59.0853114261" lon="29.9835256417"><ele>91.529</ele><time>2026-04-20T23:47:29.000Z</time></trkpt>
   <trkpt lat="59.0853347277" lon="29.9835558165"><ele>93.429</ele><time>2026-04-20T23:48:15.000Z</time></trkpt>
   <trkpt lat="59.0853319617" lon="29.9835729156"><ele>98.139</ele><time>2026-04-20T23:48:57.000Z</time></trkpt>
   <trkpt lat="59.0853232445" lon="29.9835262284"><ele>98.619</ele><time>2026-04-20T23:49:39.000Z</time></trkpt>
   <trkpt lat="59.0853296148" lon="29.9835252226"><ele>97.079</ele><time>2026-04-20T23:50:04.000Z</time></trkpt>
   <trkpt lat="59.0853255915" lon="29.9835439142"><ele>95.469</ele><time>2026-04-20T23:50:52.000Z</time></trkpt>
   <trkpt lat="59.0852787366" lon="29.98355699"><ele>94.449</ele><time>2026-04-20T23:51:54.000Z</time></trkpt>
   <trkpt lat="59.085261889" lon="29.9834858276"><ele>91.229</ele><time>2026-04-20T23:52:22.000Z</time></trkpt>
   <trkpt lat="59.0852061493" lon="29.9834424932"><ele>89.789</ele><time>2026-04-20T23:52:42.000Z</time></trkpt>
   <trkpt lat="59.085224841" lon="29.9834295851"><ele>87.079</ele><time>2026-04-20T23:53:16.000Z</time></trkpt>
   <trkpt lat="59.0852408504" lon="29.9834340275"><ele>87.009</ele><time>2026-04-20T23:53:35.000Z</time></trkpt>
   <trkpt lat="59.0852542615" lon="29.983384239"><ele>80.649</ele><time>2026-04-20T23:53:52.000Z</time></trkpt>
   <trkpt lat="59.0852806645" lon="29.9834258132"><ele>83.379</ele><time>2026-04-20T23:54:16.000Z</time></trkpt>
   <trkpt lat="59.0852665829" lon="29.9834196106"><ele>82.109</ele><time>2026-04-20T23:54:46.000Z</time></trkpt>
   <trkpt lat="59.0852695165" lon="29.9834540602"><ele>82.549</ele><time>2026-04-20T23:55:23.000Z</time></trkpt>
   <trkpt lat="59.0853001105" lon="29.9835167569"><ele>84.559</ele><time>2026-04-20T23:55:55.000Z</time></trkpt>
   <trkpt lat="59.0853020383" lon="29.983514829"><ele>82.789</ele><time>2026-04-20T23:56:25.000Z</time></trkpt>
   <trkpt lat="59.0853003619" lon="29.9835252226"><ele>80.949</ele><time>2026-04-20T23:56:52.000Z</time></trkpt>
   <trkpt lat="59.085408237" lon="29.9833771144"><ele>81.749</ele><time>2026-04-20T23:57:08.000Z</time></trkpt>
   <trkpt lat="59.0854702631" lon="29.9832981568"><ele>81.989</ele><time>2026-04-20T23:57:22.000Z</time></trkpt>
   <trkpt lat="59.0855331274" lon="29.9832297605"><ele>82.409</ele><time>2026-04-20T23:57:41.000Z</time></trkpt>
   <trkpt lat="59.0856412539" lon="29.9831806425"><ele>82.029</ele><time>2026-04-20T23:58:01.000Z</time></trkpt>
   <trkpt lat="59.0857883563" lon="29.9832943011"><ele>80.719</ele><time>2026-04-20T23:58:26.000Z</time></trkpt>
   <trkpt lat="59.085902015" lon="29.9833558243"><ele>87.619</ele><time>2026-04-20T23:59:12.000Z</time></trkpt>
   <trkpt lat="59.085911235" lon="29.9833880108"><ele>88.689</ele><time>2026-04-20T23:59:46.000Z</time></trkpt>
   <trkpt lat="59.0859026855" lon="29.9833367136"><ele>81.259</ele><time>2026-04-21T00:00:18.000Z</time></trkpt>
   <trkpt lat="59.0859033561" lon="29.9833276611"><ele>78.139</ele><time>2026-04-21T00:00:41.000Z</time></trkpt>
   <trkpt lat="59.0858712534" lon="29.983427741"><ele>80.619</ele><time>2026-04-21T00:01:18.000Z</time></trkpt>
   <trkpt lat="59.085854741" lon="29.9835132365"><ele>82.009</ele><time>2026-04-21T00:01:48.000Z</time></trkpt>
   <trkpt lat="59.085871421" lon="29.983437045"><ele>83.489</ele><time>2026-04-21T00:02:10.000Z</time></trkpt>
   <trkpt lat="59.0859057868" lon="29.9834242206"><ele>83.219</ele><time>2026-04-21T00:02:36.000Z</time></trkpt>
   <trkpt lat="59.0858993327" lon="29.9835108895"><ele>82.879</ele><time>2026-04-21T00:03:04.000Z</time></trkpt>
   <trkpt lat="59.0858935492" lon="29.9835377116"><ele>82.319</ele><time>2026-04-21T00:03:28.000Z</time></trkpt>
   <trkpt lat="59.0859577546" lon="29.9835918587"><ele>91.849</ele><time>2026-04-21T00:04:21.000Z</time></trkpt>
   <trkpt lat="59.085963119" lon="29.9836035096"><ele>96.029</ele><time>2026-04-21T00:04:34.000Z</time></trkpt>
   <trkpt lat="59.0859424157" lon="29.9836367857"><ele>97.379</ele><time>2026-04-21T00:05:35.000Z</time></trkpt>
   <trkpt lat="59.0859375542" lon="29.9835118115"><ele>97.689</ele><time>2026-04-21T00:06:19.000Z</time></trkpt>
   <trkpt lat="59.0859358778" lon="29.9835090455"><ele>93.839</ele><time>2026-04-21T00:07:35.000Z</time></trkpt>
   <trkpt lat="59.0859668909" lon="29.9835046031"><ele>92.139</ele><time>2026-04-21T00:08:19.000Z</time></trkpt>
   <trkpt lat="59.0860943796" lon="29.9834792059"><ele>90.569</ele><time>2026-04-21T00:08:42.000Z</time></trkpt>
   <trkpt lat="59.0862455892" lon="29.983543998"><ele>90.829</ele><time>2026-04-21T00:09:13.000Z</time></trkpt>
   <trkpt lat="59.0864778517" lon="29.9834832292"><ele>89.939</ele><time>2026-04-21T00:09:35.000Z</time></trkpt>
   <trkpt lat="59.0865682924" lon="29.9834816367"><ele>89.419</ele><time>2026-04-21T00:09:57.000Z</time></trkpt>
   <trkpt lat="59.0867249502" lon="29.9834606819"><ele>87.379</ele><time>2026-04-21T00:10:38.000Z</time></trkpt>
   <trkpt lat="59.0869086815" lon="29.9833934591"><ele>86.479</ele><time>2026-04-21T00:10:57.000Z</time></trkpt>
   <trkpt lat="59.0870260282" lon="29.9833585065"><ele>85.919</ele><time>2026-04-21T00:11:18.000Z</time></trkpt>
   <trkpt lat="59.0871663412" lon="29.9833537288"><ele>85.449</ele><time>2026-04-21T00:11:46.000Z</time></trkpt>
   <trkpt lat="59.087194253" lon="29.9834227957"><ele>88.409</ele><time>2026-04-21T00:12:14.000Z</time></trkpt>
   <trkpt lat="59.0871556124" lon="29.9835723289"><ele>86.539</ele><time>2026-04-21T00:12:46.000Z</time></trkpt>
   <trkpt lat="59.0871725438" lon="29.9835371249"><ele>88.679</ele><time>2026-04-21T00:13:31.000Z</time></trkpt>
   <trkpt lat="59.0872031378" lon="29.9834932037"><ele>86.989</ele><time>2026-04-21T00:13:56.000Z</time></trkpt>
   <trkpt lat="59.0871728791" lon="29.9835592531"><ele>87.669</ele><time>2026-04-21T00:14:27.000Z</time></trkpt>
   <trkpt lat="59.0872055685" lon="29.9834848218"><ele>89.209</ele><time>2026-04-21T00:15:06.000Z</time></trkpt>
   <trkpt lat="59.0872090889" lon="29.9835981451"><ele>88.479</ele><time>2026-04-21T00:16:29.000Z</time></trkpt>
   <trkpt lat="59.0872129446" lon="29.9836042639"><ele>90.529</ele><time>2026-04-21T00:17:40.000Z</time></trkpt>
   <trkpt lat="59.0872429518" lon="29.9836553935"><ele>91.739</ele><time>2026-04-21T00:18:17.000Z</time></trkpt>
   <trkpt lat="59.0874084106" lon="29.9838174995"><ele>89.049</ele><time>2026-04-21T00:18:56.000Z</time></trkpt>
   <trkpt lat="59.0875618832" lon="29.9839159031"><ele>89.149</ele><time>2026-04-21T00:19:21.000Z</time></trkpt>
   <trkpt lat="59.0877230672" lon="29.983985892"><ele>90.399</ele><time>2026-04-21T00:19:47.000Z</time></trkpt>
   <trkpt lat="59.0878661463" lon="29.9840288911"><ele>89.409</ele><time>2026-04-21T00:20:03.000Z</time></trkpt>
   <trkpt lat="59.0879789667" lon="29.9840204254"><ele>89.059</ele><time>2026-04-21T00:20:31.000Z</time></trkpt>
   <trkpt lat="59.0880432559" lon="29.9840171565"><ele>88.279</ele><time>2026-04-21T00:21:06.000Z</time></trkpt>
   <trkpt lat="59.0881603511" lon="29.9840910849"><ele>89.539</ele><time>2026-04-21T00:21:28.000Z</time></trkpt>
   <trkpt lat="59.0882143306" lon="29.9840259575"><ele>89.559</ele><time>2026-04-21T00:21:54.000Z</time></trkpt>
   <trkpt lat="59.0882474391" lon="29.9839721457"><ele>89.849</ele><time>2026-04-21T00:22:14.000Z</time></trkpt>
   <trkpt lat="59.0882684777" lon="29.983927051"><ele>89.619</ele><time>2026-04-21T00:22:45.000Z</time></trkpt>
   <trkpt lat="59.0882781169" lon="29.9839402106"><ele>90.669</ele><time>2026-04-21T00:23:28.000Z</time></trkpt>
   <trkpt lat="59.0882632809" lon="29.9839656078"><ele>89.129</ele><time>2026-04-21T00:23:59.000Z</time></trkpt>
   <trkpt lat="59.0882850738" lon="29.9838805315"><ele>86.469</ele><time>2026-04-21T00:24:09.000Z</time></trkpt>
   <trkpt lat="59.0882549828" lon="29.9838197627"><ele>87.509</ele><time>2026-04-21T00:24:44.000Z</time></trkpt>
   <trkpt lat="59.0882601796" lon="29.9838346824"><ele>85.949</ele><time>2026-04-21T00:25:32.000Z</time></trkpt>
   <trkpt lat="59.0882870855" lon="29.9839104548"><ele>85.419</ele><time>2026-04-21T00:26:31.000Z</time></trkpt>
   <trkpt lat="59.0883057771" lon="29.9839161545"><ele>85.979</ele><time>2026-04-21T00:27:28.000Z</time></trkpt>
   <trkpt lat="59.0883097166" lon="29.9838755023"><ele>85.159</ele><time>2026-04-21T00:28:07.000Z</time></trkpt>
   <trkpt lat="59.0883890094" lon="29.9838950321"><ele>84.889</ele><time>2026-04-21T00:28:33.000Z</time></trkpt>
   <trkpt lat="59.0884970522" lon="29.9838698864"><ele>84.469</ele><time>2026-04-21T00:28:54.000Z</time></trkpt>
   <trkpt lat="59.0885352737" lon="29.9838902545"><ele>85.939</ele><time>2026-04-21T00:29:06.000Z</time></trkpt>
   <trkpt lat="59.0886363594" lon="29.9839819525"><ele>84.819</ele><time>2026-04-21T00:29:40.000Z</time></trkpt>
   <trkpt lat="59.0887790194" lon="29.9840466608"><ele>85.629</ele><time>2026-04-21T00:29:53.000Z</time></trkpt>
   <trkpt lat="59.0889000541" lon="29.9841262889"><ele>85.879</ele><time>2026-04-21T00:30:09.000Z</time></trkpt>
   <trkpt lat="59.088906592" lon="29.9841505964"><ele>85.519</ele><time>2026-04-21T00:30:37.000Z</time></trkpt>
   <trkpt lat="59.0889729766" lon="29.9841437232"><ele>82.289</ele><time>2026-04-21T00:30:54.000Z</time></trkpt>
   <trkpt lat="59.0890497549" lon="29.983978935"><ele>82.349</ele><time>2026-04-21T00:31:12.000Z</time></trkpt>
   <trkpt lat="59.089120079" lon="29.9840065953"><ele>83.279</ele><time>2026-04-21T00:31:29.000Z</time></trkpt>
   <trkpt lat="59.0891194923" lon="29.9840259575"><ele>84.019</ele><time>2026-04-21T00:32:15.000Z</time></trkpt>
   <trkpt lat="59.0891264493" lon="29.9840316572"><ele>85.049</ele><time>2026-04-21T00:32:49.000Z</time></trkpt>
   <trkpt lat="59.0891181512" lon="29.9839919269"><ele>85.909</ele><time>2026-04-21T00:33:14.000Z</time></trkpt>
   <trkpt lat="59.0891189894" lon="29.98388489"><ele>84.619</ele><time>2026-04-21T00:33:55.000Z</time></trkpt>
   <trkpt lat="59.0891025609" lon="29.9840711359"><ele>85.139</ele><time>2026-04-21T00:34:54.000Z</time></trkpt>
   <trkpt lat="59.0890513474" lon="29.9840955273"><ele>87.449</ele><time>2026-04-21T00:35:48.000Z</time></trkpt>
   <trkpt lat="59.0891360885" lon="29.9839990516"><ele>84.809</ele><time>2026-04-21T00:36:42.000Z</time></trkpt>
   <trkpt lat="59.0891160557" lon="29.9840213474"><ele>85.049</ele><time>2026-04-21T00:37:16.000Z</time></trkpt>
   <trkpt lat="59.0890795106" lon="29.984172054"><ele>84.449</ele><time>2026-04-21T00:37:38.000Z</time></trkpt>
   <trkpt lat="59.089058053" lon="29.9844132014"><ele>83.929</ele><time>2026-04-21T00:37:53.000Z</time></trkpt>
   <trkpt lat="59.0890279619" lon="29.9845598009"><ele>84.029</ele><time>2026-04-21T00:38:08.000Z</time></trkpt>
   <trkpt lat="59.089031147" lon="29.9846851942"><ele>83.479</ele><time>2026-04-21T00:38:17.000Z</time></trkpt>
   <trkpt lat="59.0889908301" lon="29.984863142"><ele>82.709</ele><time>2026-04-21T00:38:37.000Z</time></trkpt>
   <trkpt lat="59.0889751559" lon="29.9849320412"><ele>82.019</ele><time>2026-04-21T00:38:56.000Z</time></trkpt>
   <trkpt lat="59.0889150577" lon="29.9850190454"><ele>81.459</ele><time>2026-04-21T00:39:16.000Z</time></trkpt>
   <trkpt lat="59.0889330788" lon="29.9851534911"><ele>80.999</ele><time>2026-04-21T00:39:35.000Z</time></trkpt>
   <trkpt lat="59.0888742378" lon="29.9852708377"><ele>80.599</ele><time>2026-04-21T00:39:54.000Z</time></trkpt>
   <trkpt lat="59.0888578093" lon="29.9853422515"><ele>79.019</ele><time>2026-04-21T00:40:10.000Z</time></trkpt>
   <trkpt lat="59.0888207613" lon="29.9853784614"><ele>80.019</ele><time>2026-04-21T00:40:30.000Z</time></trkpt>
   <trkpt lat="59.0887974596" lon="29.9854386434"><ele>80.459</ele><time>2026-04-21T00:40:43.000Z</time></trkpt>
   <trkpt lat="59.0887869822" lon="29.9854362965"><ele>80.689</ele><time>2026-04-21T00:41:14.000Z</time></trkpt>
   <trkpt lat="59.0887966214" lon="29.9854569998"><ele>82.129</ele><time>2026-04-21T00:42:10.000Z</time></trkpt>
   <trkpt lat="59.0887970405" lon="29.9854687345"><ele>83.329</ele><time>2026-04-21T00:42:43.000Z</time></trkpt>
   <trkpt lat="59.0887800252" lon="29.9855095543"><ele>82.169</ele><time>2026-04-21T00:43:23.000Z</time></trkpt>
   <trkpt lat="59.0887817854" lon="29.9855382204"><ele>81.779</ele><time>2026-04-21T00:43:52.000Z</time></trkpt>
   <trkpt lat="59.0888293108" lon="29.985572251"><ele>83.639</ele><time>2026-04-21T00:44:27.000Z</time></trkpt>
   <trkpt lat="59.0888314901" lon="29.9855831474"><ele>83.489</ele><time>2026-04-21T00:45:06.000Z</time></trkpt>
   <trkpt lat="59.088847751" lon="29.9855160922"><ele>80.259</ele><time>2026-04-21T00:45:25.000Z</time></trkpt>
   <trkpt lat="59.0888473319" lon="29.985391621"><ele>84.009</ele><time>2026-04-21T00:46:26.000Z</time></trkpt>
   <trkpt lat="59.0888402911" lon="29.9853668105"><ele>85.429</ele><time>2026-04-21T00:47:20.000Z</time></trkpt>
   <trkpt lat="59.0888086913" lon="29.9853595183"><ele>84.219</ele><time>2026-04-21T00:47:32.000Z</time></trkpt>
   <trkpt lat="59.0886992237" lon="29.9853473645"><ele>83.779</ele><time>2026-04-21T00:47:46.000Z</time></trkpt>
   <trkpt lat="59.0886042567" lon="29.9853132502"><ele>83.839</ele><time>2026-04-21T00:47:56.000Z</time></trkpt>
   <trkpt lat="59.0884694757" lon="29.9853475321"><ele>84.789</ele><time>2026-04-21T00:48:11.000Z</time></trkpt>
   <trkpt lat="59.0883336889" lon="29.9854284175"><ele>86.579</ele><time>2026-04-21T00:48:25.000Z</time></trkpt>
   <trkpt lat="59.0882640353" lon="29.9854820617"><ele>85.399</ele><time>2026-04-21T00:48:41.000Z</time></trkpt>
   <trkpt lat="59.0881268235" lon="29.9855639529"><ele>85.319</ele><time>2026-04-21T00:48:56.000Z</time></trkpt>
   <trkpt lat="59.0880287552" lon="29.985606533"><ele>84.909</ele><time>2026-04-21T00:49:08.000Z</time></trkpt>
   <trkpt lat="59.0878733548" lon="29.985665793"><ele>85.289</ele><time>2026-04-21T00:49:22.000Z</time></trkpt>
   <trkpt lat="59.0877383223" lon="29.9857669626"><ele>82.649</ele><time>2026-04-21T00:49:40.000Z</time></trkpt>
   <trkpt lat="59.0877318682" lon="29.9857122288"><ele>79.369</ele><time>2026-04-21T00:50:06.000Z</time></trkpt>
   <trkpt lat="59.0876902102" lon="29.9856092152"><ele>78.379</ele><time>2026-04-21T00:50:21.000Z</time></trkpt>
   <trkpt lat="59.0876880309" lon="29.9856002465"><ele>78.409</ele><time>2026-04-21T00:50:23.000Z</time></trkpt>
   <trkpt lat="59.0876885338" lon="29.9855657969"><ele>78.539</ele><time>2026-04-21T00:50:40.000Z</time></trkpt>
   <trkpt lat="59.0877048785" lon="29.9856103886"><ele>77.379</ele><time>2026-04-21T00:50:58.000Z</time></trkpt>
   <trkpt lat="59.0876993464" lon="29.9856893462"><ele>80.509</ele><time>2026-04-21T00:51:16.000Z</time></trkpt>
   <trkpt lat="59.0877055491" lon="29.985715833"><ele>81.539</ele><time>2026-04-21T00:51:48.000Z</time></trkpt>
   <trkpt lat="59.0877180381" lon="29.9857313395"><ele>81.359</ele><time>2026-04-21T00:52:36.000Z</time></trkpt>
   <trkpt lat="59.0877146853" lon="29.9857188505"><ele>82.289</ele><time>2026-04-21T00:54:28.000Z</time></trkpt>
   <trkpt lat="59.087678727" lon="29.9857691419"><ele>81.809</ele><time>2026-04-21T00:55:10.000Z</time></trkpt>
   <trkpt lat="59.087606475" lon="29.9857955449"><ele>83.259</ele><time>2026-04-21T00:55:26.000Z</time></trkpt>
   <trkpt lat="59.0875970872" lon="29.9857507855"><ele>84.589</ele><time>2026-04-21T00:55:42.000Z</time></trkpt>
   <trkpt lat="59.0874923134" lon="29.98574869"><ele>83.969</ele><time>2026-04-21T00:56:04.000Z</time></trkpt>
   <trkpt lat="59.0874096679" lon="29.9857590836"><ele>83.269</ele><time>2026-04-21T00:56:19.000Z</time></trkpt>
   <trkpt lat="59.0872229191" lon="29.9858403042"><ele>83.969</ele><time>2026-04-21T00:56:40.000Z</time></trkpt>
   <trkpt lat="59.0870637467" lon="29.9859198485"><ele>85.459</ele><time>2026-04-21T00:56:55.000Z</time></trkpt>
   <trkpt lat="59.0870119466" lon="29.9859425635"><ele>83.229</ele><time>2026-04-21T00:57:34.000Z</time></trkpt>
   <trkpt lat="59.0869686121" lon="29.985819098"><ele>82.299</ele><time>2026-04-21T00:57:51.000Z</time></trkpt>
   <trkpt lat="59.0868917501" lon="29.9856804613"><ele>79.409</ele><time>2026-04-21T00:58:15.000Z</time></trkpt>
   <trkpt lat="59.086833412" lon="29.9856279906"><ele>79.129</ele><time>2026-04-21T00:58:34.000Z</time></trkpt>
   <trkpt lat="59.0867197534" lon="29.9853836582"><ele>80.689</ele><time>2026-04-21T00:58:55.000Z</time></trkpt>
   <trkpt lat="59.0866193382" lon="29.9852451053"><ele>80.669</ele><time>2026-04-21T00:59:25.000Z</time></trkpt>
   <trkpt lat="59.0865767582" lon="29.9852037825"><ele>83.089</ele><time>2026-04-21T00:59:54.000Z</time></trkpt>
   <trkpt lat="59.0865371118" lon="29.9852295988"><ele>82.669</ele><time>2026-04-21T01:00:46.000Z</time></trkpt>
   <trkpt lat="59.0865405483" lon="29.9851752002"><ele>83.049</ele><time>2026-04-21T01:01:45.000Z</time></trkpt>
   <trkpt lat="59.0865356868" lon="29.9851316981"><ele>79.929</ele><time>2026-04-21T01:02:56.000Z</time></trkpt>
   <trkpt lat="59.0865586532" lon="29.9851601966"><ele>80.289</ele><time>2026-04-21T01:03:36.000Z</time></trkpt>
   <trkpt lat="59.0864742475" lon="29.9852187023"><ele>80.819</ele><time>2026-04-21T01:03:59.000Z</time></trkpt>
   <trkpt lat="59.0863896741" lon="29.9852734361"><ele>80.669</ele><time>2026-04-21T01:04:22.000Z</time></trkpt>
   <trkpt lat="59.0861799589" lon="29.985197999"><ele>81.209</ele><time>2026-04-21T01:04:46.000Z</time></trkpt>
   <trkpt lat="59.086107623" lon="29.9850816582"><ele>81.089</ele><time>2026-04-21T01:05:06.000Z</time></trkpt>
   <trkpt lat="59.0859831518" lon="29.9852933851"><ele>80.539</ele><time>2026-04-21T01:05:22.000Z</time></trkpt>
   <trkpt lat="59.0858804735" lon="29.9852850032"><ele>81.689</ele><time>2026-04-21T01:05:39.000Z</time></trkpt>
   <trkpt lat="59.0857796392" lon="29.9852119968"><ele>82.319</ele><time>2026-04-21T01:05:52.000Z</time></trkpt>
   <trkpt lat="59.0856817385" lon="29.9852306046"><ele>81.969</ele><time>2026-04-21T01:06:09.000Z</time></trkpt>
   <trkpt lat="59.0856348837" lon="29.9851980828"><ele>80.989</ele><time>2026-04-21T01:06:31.000Z</time></trkpt>
   <trkpt lat="59.0855938124" lon="29.9852432613"><ele>82.559</ele><time>2026-04-21T01:06:44.000Z</time></trkpt>
   <trkpt lat="59.0855182914" lon="29.985226246"><ele>82.269</ele><time>2026-04-21T01:07:12.000Z</time></trkpt>
   <trkpt lat="59.08543003" lon="29.9850346357"><ele>85.089</ele><time>2026-04-21T01:07:31.000Z</time></trkpt>
   <trkpt lat="59.085387869" lon="29.9849252519"><ele>83.679</ele><time>2026-04-21T01:07:46.000Z</time></trkpt>
   <trkpt lat="59.0853712728" lon="29.9848423548"><ele>85.549</ele><time>2026-04-21T01:08:25.000Z</time></trkpt>
   <trkpt lat="59.0853895454" lon="29.9848523293"><ele>84.949</ele><time>2026-04-21T01:09:02.000Z</time></trkpt>
   <trkpt lat="59.0853914732" lon="29.9848578614"><ele>83.939</ele><time>2026-04-21T01:10:09.000Z</time></trkpt>
   <trkpt lat="59.0853582809" lon="29.9848544248"><ele>81.159</ele><time>2026-04-21T01:11:05.000Z</time></trkpt>
   <trkpt lat="59.0853268488" lon="29.9847368267"><ele>82.339</ele><time>2026-04-21T01:11:42.000Z</time></trkpt>
   <trkpt lat="59.0852835143" lon="29.984906644"><ele>80.419</ele><time>2026-04-21T01:12:08.000Z</time></trkpt>
   <trkpt lat="59.0851688499" lon="29.9849120923"><ele>78.639</ele><time>2026-04-21T01:12:32.000Z</time></trkpt>
   <trkpt lat="59.0851060694" lon="29.9849010282"><ele>78.539</ele><time>2026-04-21T01:12:51.000Z</time></trkpt>
   <trkpt lat="59.0849600567" lon="29.9848731164"><ele>78.709</ele><time>2026-04-21T01:13:07.000Z</time></trkpt>
   <trkpt lat="59.0849375094" lon="29.9848595377"><ele>77.969</ele><time>2026-04-21T01:13:13.000Z</time></trkpt>
   <trkpt lat="59.0848391896" lon="29.9848628067"><ele>78.009</ele><time>2026-04-21T01:13:26.000Z</time></trkpt>
   <trkpt lat="59.0847942626" lon="29.9848679196"><ele>78.759</ele><time>2026-04-21T01:13:40.000Z</time></trkpt>
   <trkpt lat="59.0847708771" lon="29.9848357331"><ele>79.339</ele><time>2026-04-21T01:14:07.000Z</time></trkpt>
   <trkpt lat="59.0847483298" lon="29.9848174606"><ele>77.679</ele><time>2026-04-21T01:14:24.000Z</time></trkpt>
   <trkpt lat="59.084723687" lon="29.9847996071"><ele>74.359</ele><time>2026-04-21T01:14:49.000Z</time></trkpt>
   <trkpt lat="59.0847235194" lon="29.9847978469"><ele>72.849</ele><time>2026-04-21T01:15:02.000Z</time></trkpt>
   <trkpt lat="59.0846819451" lon="29.984846462"><ele>73.479</ele><time>2026-04-21T01:15:19.000Z</time></trkpt>
   <trkpt lat="59.0846548716" lon="29.984837661"><ele>72.879</ele><time>2026-04-21T01:15:42.000Z</time></trkpt>
   <trkpt lat="59.0846487528" lon="29.9848387506"><ele>73.739</ele><time>2026-04-21T01:15:47.000Z</time></trkpt>
   <trkpt lat="59.0846066756" lon="29.9848129344"><ele>73.869</ele><time>2026-04-21T01:16:00.000Z</time></trkpt>
   <trkpt lat="59.0845779257" lon="29.9848037143"><ele>74.919</ele><time>2026-04-21T01:16:15.000Z</time></trkpt>
   <trkpt lat="59.0845593179" lon="29.9848020379"><ele>76.559</ele><time>2026-04-21T01:16:43.000Z</time></trkpt>
   <trkpt lat="59.0845081883" lon="29.9847167939"><ele>76.129</ele><time>2026-04-21T01:17:01.000Z</time></trkpt>
   <trkpt lat="59.0844583159" lon="29.9847197276"><ele>77.109</ele><time>2026-04-21T01:17:11.000Z</time></trkpt>
   <trkpt lat="59.0844564719" lon="29.9847058975"><ele>77.149</ele><time>2026-04-21T01:17:26.000Z</time></trkpt>
   <trkpt lat="59.0844153168" lon="29.9846461345"><ele>76.699</ele><time>2026-04-21T01:17:38.000Z</time></trkpt>
   <trkpt lat="59.0843637681" lon="29.9846100085"><ele>76.779</ele><time>2026-04-21T01:17:56.000Z</time></trkpt>
   <trkpt lat="59.0843111297" lon="29.9846067395"><ele>76.939</ele><time>2026-04-21T01:18:10.000Z</time></trkpt>
   <trkpt lat="59.0842557253" lon="29.9845458869"><ele>77.169</ele><time>2026-04-21T01:18:25.000Z</time></trkpt>
   <trkpt lat="59.0842437392" lon="29.9845395167"><ele>73.529</ele><time>2026-04-21T01:18:57.000Z</time></trkpt>
   <trkpt lat="59.0842250476" lon="29.9845204059"><ele>74.149</ele><time>2026-04-21T01:19:27.000Z</time></trkpt>
   <trkpt lat="59.0842211919" lon="29.9845103477"><ele>73.069</ele><time>2026-04-21T01:19:56.000Z</time></trkpt>
   <trkpt lat="59.0842257181" lon="29.9845095933"><ele>74.659</ele><time>2026-04-21T01:20:35.000Z</time></trkpt>
   <trkpt lat="59.0842261372" lon="29.9845294584"><ele>75.539</ele><time>2026-04-21T01:21:36.000Z</time></trkpt>
   <trkpt lat="59.0842288194" lon="29.9845270276"><ele>76.009</ele><time>2026-04-21T01:22:37.000Z</time></trkpt>
   <trkpt lat="59.0842264725" lon="29.9845090904"><ele>75.389</ele><time>2026-04-21T01:23:00.000Z</time></trkpt>
   <trkpt lat="59.0841889216" lon="29.9844534345"><ele>74.799</ele><time>2026-04-21T01:23:17.000Z</time></trkpt>
   <trkpt lat="59.0841147417" lon="29.9844132852"><ele>75.159</ele><time>2026-04-21T01:23:29.000Z</time></trkpt>
   <trkpt lat="59.0840214512" lon="29.9843839486"><ele>75.569</ele><time>2026-04-21T01:23:41.000Z</time></trkpt>
   <trkpt lat="59.0839833135" lon="29.9843602278"><ele>75.189</ele><time>2026-04-21T01:23:57.000Z</time></trkpt>
   <trkpt lat="59.0839539768" lon="29.9843210843"><ele>75.699</ele><time>2026-04-21T01:24:11.000Z</time></trkpt>
   <trkpt lat="59.0839009194" lon="29.9843224254"><ele>76.609</ele><time>2026-04-21T01:24:26.000Z</time></trkpt>
   <trkpt lat="59.0838633685" lon="29.9843571265"><ele>76.679</ele><time>2026-04-21T01:24:55.000Z</time></trkpt>
   <trkpt lat="59.083769072" lon="29.9843966052"><ele>76.879</ele><time>2026-04-21T01:25:09.000Z</time></trkpt>
   <trkpt lat="59.0836941378" lon="29.9844090943"><ele>76.579</ele><time>2026-04-21T01:25:23.000Z</time></trkpt>
   <trkpt lat="59.0836818164" lon="29.9844325636"><ele>77.249</ele><time>2026-04-21T01:25:44.000Z</time></trkpt>
   <trkpt lat="59.0836632924" lon="29.9844618164"><ele>76.979</ele><time>2026-04-21T01:25:59.000Z</time></trkpt>
   <trkpt lat="59.083615767" lon="29.9844665103"><ele>77.069</ele><time>2026-04-21T01:26:12.000Z</time></trkpt>
   <trkpt lat="59.0835881906" lon="29.9844603915"><ele>77.179</ele><time>2026-04-21T01:26:25.000Z</time></trkpt>
   <trkpt lat="59.0833909644" lon="29.9847944942"><ele>82.539</ele><time>2026-04-21T01:31:40.000Z</time></trkpt>
   <trkpt lat="59.0833910482" lon="29.9847891298"><ele>83.799</ele><time>2026-04-21T01:31:43.000Z</time></trkpt>
   <trkpt lat="59.0833591132" lon="29.984692235"><ele>73.679</ele><time>2026-04-21T01:31:56.000Z</time></trkpt>
   <trkpt lat="59.0833074806" lon="29.9845608067"><ele>71.599</ele><time>2026-04-21T01:32:07.000Z</time></trkpt>
   <trkpt lat="59.0833119231" lon="29.9845836055"><ele>75.899</ele><time>2026-04-21T01:32:28.000Z</time></trkpt>
   <trkpt lat="59.0833325425" lon="29.984596346"><ele>80.209</ele><time>2026-04-21T01:33:03.000Z</time></trkpt>
   <trkpt lat="59.0833407568" lon="29.9846007884"><ele>80.629</ele><time>2026-04-21T01:33:28.000Z</time></trkpt>
   <trkpt lat="59.0833310338" lon="29.9846084159"><ele>78.119</ele><time>2026-04-21T01:33:55.000Z</time></trkpt>
   <trkpt lat="59.0833291898" lon="29.9845986929"><ele>78.969</ele><time>2026-04-21T01:34:20.000Z</time></trkpt>
   <trkpt lat="59.0833308662" lon="29.9846419435"><ele>80.369</ele><time>2026-04-21T01:35:00.000Z</time></trkpt>
   <trkpt lat="59.0833268428" lon="29.9846167978"><ele>78.919</ele><time>2026-04-21T01:35:40.000Z</time></trkpt>
   <trkpt lat="59.0833253341" lon="29.9846463859"><ele>79.379</ele><time>2026-04-21T01:36:36.000Z</time></trkpt>
   <trkpt lat="59.0833177904" lon="29.984605147"><ele>79.439</ele><time>2026-04-21T01:36:58.000Z</time></trkpt>
   <trkpt lat="59.0832885375" lon="29.9846213241"><ele>79.679</ele><time>2026-04-21T01:37:21.000Z</time></trkpt>
   <trkpt lat="59.0832761323" lon="29.9846283649"><ele>80.209</ele><time>2026-04-21T01:37:26.000Z</time></trkpt>
   <trkpt lat="59.0832201412" lon="29.9846430332"><ele>79.419</ele><time>2026-04-21T01:37:37.000Z</time></trkpt>
   <trkpt lat="59.083162809" lon="29.9846613057"><ele>79.139</ele><time>2026-04-21T01:37:49.000Z</time></trkpt>
   <trkpt lat="59.0831473863" lon="29.9846691009"><ele>78.039</ele><time>2026-04-21T01:37:57.000Z</time></trkpt>
   <trkpt lat="59.0831192231" lon="29.9846623116"><ele>79.259</ele><time>2026-04-21T01:38:11.000Z</time></trkpt>
   <trkpt lat="59.0831010344" lon="29.9846501578"><ele>79.169</ele><time>2026-04-21T01:38:25.000Z</time></trkpt>
   <trkpt lat="59.0830592925" lon="29.9846056499"><ele>79.979</ele><time>2026-04-21T01:38:42.000Z</time></trkpt>
   <trkpt lat="59.0830013735" lon="29.9845867068"><ele>79.869</ele><time>2026-04-21T01:38:52.000Z</time></trkpt>
   <trkpt lat="59.0830005353" lon="29.9845822644"><ele>79.899</ele><time>2026-04-21T01:38:53.000Z</time></trkpt>
   <trkpt lat="59.0829382578" lon="29.9845660873"><ele>79.029</ele><time>2026-04-21T01:39:05.000Z</time></trkpt>
   <trkpt lat="59.0828975218" lon="29.984572709"><ele>78.719</ele><time>2026-04-21T01:39:27.000Z</time></trkpt>
   <trkpt lat="59.0828514213" lon="29.9845774029"><ele>78.639</ele><time>2026-04-21T01:39:52.000Z</time></trkpt>
   <trkpt lat="59.0828443805" lon="29.9845693563"><ele>79.169</ele><time>2026-04-21T01:40:22.000Z</time></trkpt>
   <trkpt lat="59.0828184804" lon="29.984561142"><ele>78.929</ele><time>2026-04-21T01:40:45.000Z</time></trkpt>
   <trkpt lat="59.0827590527" lon="29.9845452164"><ele>78.299</ele><time>2026-04-21T01:40:57.000Z</time></trkpt>
   <trkpt lat="59.0826938415" lon="29.9844921589"><ele>79.089</ele><time>2026-04-21T01:41:12.000Z</time></trkpt>
   <trkpt lat="59.0826672709" lon="29.9844787479"><ele>79.689</ele><time>2026-04-21T01:41:34.000Z</time></trkpt>
   <trkpt lat="59.0826299714" lon="29.9844147101"><ele>79.319</ele><time>2026-04-21T01:41:52.000Z</time></trkpt>
   <trkpt lat="59.0826047419" lon="29.9844033108"><ele>79.199</ele><time>2026-04-21T01:41:58.000Z</time></trkpt>
   <trkpt lat="59.0825361779" lon="29.9843544443"><ele>76.709</ele><time>2026-04-21T01:42:09.000Z</time></trkpt>
   <trkpt lat="59.0824609922" lon="29.9843503371"><ele>77.409</ele><time>2026-04-21T01:42:27.000Z</time></trkpt>
   <trkpt lat="59.0824142212" lon="29.9842751515"><ele>74.679</ele><time>2026-04-21T01:42:39.000Z</time></trkpt>
   <trkpt lat="59.0823807774" lon="29.9843042367"><ele>76.179</ele><time>2026-04-21T01:43:09.000Z</time></trkpt>
   <trkpt lat="59.0823126326" lon="29.9842790071"><ele>79.439</ele><time>2026-04-21T01:43:25.000Z</time></trkpt>
   <trkpt lat="59.0822752493" lon="29.9841907457"><ele>80.339</ele><time>2026-04-21T01:43:45.000Z</time></trkpt>
   <trkpt lat="59.082280027" lon="29.9841635045"><ele>81.469</ele><time>2026-04-21T01:44:08.000Z</time></trkpt>
   <trkpt lat="59.0823074358" lon="29.9841494229"><ele>82.149</ele><time>2026-04-21T01:45:05.000Z</time></trkpt>
   <trkpt lat="59.0823203439" lon="29.9841104471"><ele>83.159</ele><time>2026-04-21T01:45:17.000Z</time></trkpt>
   <trkpt lat="59.0823172426" lon="29.9841412086"><ele>82.599</ele><time>2026-04-21T01:46:04.000Z</time></trkpt>
   <trkpt lat="59.0823222717" lon="29.9841349222"><ele>81.419</ele><time>2026-04-21T01:47:10.000Z</time></trkpt>
   <trkpt lat="59.0823215174" lon="29.9841297254"><ele>81.789</ele><time>2026-04-21T01:47:51.000Z</time></trkpt>
   <trkpt lat="59.0823066814" lon="29.9841250316"><ele>83.719</ele><time>2026-04-21T01:48:54.000Z</time></trkpt>
   <trkpt lat="59.0822425598" lon="29.9840984609"><ele>83.569</ele><time>2026-04-21T01:49:19.000Z</time></trkpt>
   <trkpt lat="59.0821991416" lon="29.9840515223"><ele>82.529</ele><time>2026-04-21T01:49:53.000Z</time></trkpt>
   <trkpt lat="59.0821931904" lon="29.9840024881"><ele>82.719</ele><time>2026-04-21T01:50:25.000Z</time></trkpt>
   <trkpt lat="59.082181372" lon="29.9838934396"><ele>82.169</ele><time>2026-04-21T01:50:50.000Z</time></trkpt>
   <trkpt lat="59.082172068" lon="29.9837474268"><ele>82.079</ele><time>2026-04-21T01:51:13.000Z</time></trkpt>
   <trkpt lat="59.0821361097" lon="29.9834330216"><ele>80.709</ele><time>2026-04-21T01:51:44.000Z</time></trkpt>
   <trkpt lat="59.0820958765" lon="29.9833913636"><ele>79.509</ele><time>2026-04-21T01:52:08.000Z</time></trkpt>
   <trkpt lat="59.0820553919" lon="29.9834186048"><ele>79.569</ele><time>2026-04-21T01:52:53.000Z</time></trkpt>
   <trkpt lat="59.0820853153" lon="29.9836640269"><ele>80.869</ele><time>2026-04-21T01:53:07.000Z</time></trkpt>
   <trkpt lat="59.0820949545" lon="29.9837540485"><ele>79.679</ele><time>2026-04-21T01:53:12.000Z</time></trkpt>
   <trkpt lat="59.0821127242" lon="29.9839277216"><ele>81.229</ele><time>2026-04-21T01:53:24.000Z</time></trkpt>
   <trkpt lat="59.0821408874" lon="29.9841296416"><ele>80.019</ele><time>2026-04-21T01:53:38.000Z</time></trkpt>
   <trkpt lat="59.0820944516" lon="29.9840889056"><ele>81.359</ele><time>2026-04-21T01:54:04.000Z</time></trkpt>
   <trkpt lat="59.081978027" lon="29.9839931842"><ele>83.179</ele><time>2026-04-21T01:54:27.000Z</time></trkpt>
   <trkpt lat="59.0818407314" lon="29.9839328345"><ele>83.939</ele><time>2026-04-21T01:54:52.000Z</time></trkpt>
   <trkpt lat="59.0817335269" lon="29.9838340119"><ele>84.619</ele><time>2026-04-21T01:55:16.000Z</time></trkpt>
   <trkpt lat="59.081562536" lon="29.9837169167"><ele>85.079</ele><time>2026-04-21T01:55:49.000Z</time></trkpt>
   <trkpt lat="59.0814587681" lon="29.9836959619"><ele>85.359</ele><time>2026-04-21T01:56:11.000Z</time></trkpt>
   <trkpt lat="59.0812857656" lon="29.983688083"><ele>89.689</ele><time>2026-04-21T01:56:26.000Z</time></trkpt>
   <trkpt lat="59.0812691694" lon="29.9839116283"><ele>87.949</ele><time>2026-04-21T01:57:26.000Z</time></trkpt>
   <trkpt lat="59.0812407548" lon="29.9839086946"><ele>87.689</ele><time>2026-04-21T01:57:56.000Z</time></trkpt>
   <trkpt lat="59.0812325405" lon="29.9839002289"><ele>86.829</ele><time>2026-04-21T01:58:29.000Z</time></trkpt>
   <trkpt lat="59.0812956562" lon="29.9838565592"><ele>85.389</ele><time>2026-04-21T01:59:07.000Z</time></trkpt>
   <trkpt lat="59.081323568" lon="29.983832587"><ele>86.029</ele><time>2026-04-21T02:00:00.000Z</time></trkpt>
   <trkpt lat="59.0813359732" lon="29.9838583194"><ele>90.469</ele><time>2026-04-21T02:00:49.000Z</time></trkpt>
   <trkpt lat="59.0812904595" lon="29.9840262928"><ele>91.199</ele><time>2026-04-21T02:01:46.000Z</time></trkpt>
   <trkpt lat="59.0812855141" lon="29.9839808628"><ele>90.189</ele><time>2026-04-21T02:02:47.000Z</time></trkpt>
   <trkpt lat="59.0812396651" lon="29.9839096167"><ele>89.509</ele><time>2026-04-21T02:03:25.000Z</time></trkpt>
   <trkpt lat="59.0812391622" lon="29.9839521129"><ele>86.509</ele><time>2026-04-21T02:04:03.000Z</time></trkpt>
   <trkpt lat="59.0812974164" lon="29.98393032"><ele>88.399</ele><time>2026-04-21T02:04:43.000Z</time></trkpt>
   <trkpt lat="59.0812655652" lon="29.983947922"><ele>87.249</ele><time>2026-04-21T02:05:17.000Z</time></trkpt>
   <trkpt lat="59.0811613782" lon="29.9838949483"><ele>88.219</ele><time>2026-04-21T02:05:57.000Z</time></trkpt>
   <trkpt lat="59.0809571112" lon="29.9840055056"><ele>87.569</ele><time>2026-04-21T02:06:18.000Z</time></trkpt>
   <trkpt lat="59.0808249286" lon="29.9840438947"><ele>87.179</ele><time>2026-04-21T02:06:31.000Z</time></trkpt>
   <trkpt lat="59.0807127787" lon="29.984050265"><ele>86.369</ele><time>2026-04-21T02:06:44.000Z</time></trkpt>
   <trkpt lat="59.0806226732" lon="29.9840468284"><ele>86.289</ele><time>2026-04-21T02:07:00.000Z</time></trkpt>
   <trkpt lat="59.0805129541" lon="29.9841581401"><ele>86.549</ele><time>2026-04-21T02:07:15.000Z</time></trkpt>
   <trkpt lat="59.0803886505" lon="29.9842700385"><ele>86.649</ele><time>2026-04-21T02:07:31.000Z</time></trkpt>
   <trkpt lat="59.0803179911" lon="29.9841202539"><ele>83.979</ele><time>2026-04-21T02:08:00.000Z</time></trkpt>
   <trkpt lat="59.0802713877" lon="29.9839563877"><ele>85.289</ele><time>2026-04-21T02:08:13.000Z</time></trkpt>
   <trkpt lat="59.0802818651" lon="29.9839301523"><ele>86.089</ele><time>2026-04-21T02:08:32.000Z</time></trkpt>
   <trkpt lat="59.0802816136" lon="29.9839330022"><ele>81.799</ele><time>2026-04-21T02:09:12.000Z</time></trkpt>
   <trkpt lat="59.0802422187" lon="29.9839848861"><ele>81.999</ele><time>2026-04-21T02:10:24.000Z</time></trkpt>
   <trkpt lat="59.0802373571" lon="29.9839853052"><ele>83.379</ele><time>2026-04-21T02:11:20.000Z</time></trkpt>
   <trkpt lat="59.080269376" lon="29.9840383627"><ele>83.119</ele><time>2026-04-21T02:11:51.000Z</time></trkpt>
   <trkpt lat="59.0802764168" lon="29.9843368423"><ele>83.679</ele><time>2026-04-21T02:12:07.000Z</time></trkpt>
   <trkpt lat="59.0802770874" lon="29.9844976072"><ele>82.979</ele><time>2026-04-21T02:12:20.000Z</time></trkpt>
   <trkpt lat="59.0803054182" lon="29.9846028001"><ele>81.459</ele><time>2026-04-21T02:12:29.000Z</time></trkpt>
   <trkpt lat="59.0803609902" lon="29.9847978469"><ele>83.629</ele><time>2026-04-21T02:12:42.000Z</time></trkpt>
   <trkpt lat="59.0803516863" lon="29.9848806601"><ele>82.979</ele><time>2026-04-21T02:12:48.000Z</time></trkpt>
   <trkpt lat="59.080399547" lon="29.9850475438"><ele>84.739</ele><time>2026-04-21T02:13:00.000Z</time></trkpt>
   <trkpt lat="59.0804034865" lon="29.9850296066"><ele>84.689</ele><time>2026-04-21T02:13:02.000Z</time></trkpt>
   <trkpt lat="59.0804303924" lon="29.9850412574"><ele>82.039</ele><time>2026-04-21T02:13:17.000Z</time></trkpt>
   <trkpt lat="59.0804291351" lon="29.9851744458"><ele>82.599</ele><time>2026-04-21T02:13:29.000Z</time></trkpt>
   <trkpt lat="59.0804515148" lon="29.9852409982"><ele>83.129</ele><time>2026-04-21T02:14:15.000Z</time></trkpt>
   <trkpt lat="59.0805963541" lon="29.9853411619"><ele>83.399</ele><time>2026-04-21T02:14:32.000Z</time></trkpt>
   <trkpt lat="59.0808097573" lon="29.9853646312"><ele>83.879</ele><time>2026-04-21T02:15:01.000Z</time></trkpt>
   <trkpt lat="59.0809095858" lon="29.9855024297"><ele>84.919</ele><time>2026-04-21T02:15:16.000Z</time></trkpt>
   <trkpt lat="59.0810648186" lon="29.9854816426"><ele>86.129</ele><time>2026-04-21T02:15:50.000Z</time></trkpt>
   <trkpt lat="59.0811203906" lon="29.9854598497"><ele>85.789</ele><time>2026-04-21T02:16:27.000Z</time></trkpt>
   <trkpt lat="59.0811691733" lon="29.9854924553"><ele>85.229</ele><time>2026-04-21T02:16:48.000Z</time></trkpt>
   <trkpt lat="59.0812275114" lon="29.9855252285"><ele>85.009</ele><time>2026-04-21T02:17:09.000Z</time></trkpt>
   <trkpt lat="59.0813269207" lon="29.9855623603"><ele>84.939</ele><time>2026-04-21T02:17:23.000Z</time></trkpt>
   <trkpt lat="59.0814061297" lon="29.9854246457"><ele>87.729</ele><time>2026-04-21T02:17:45.000Z</time></trkpt>
   <trkpt lat="59.0814284256" lon="29.985451803"><ele>88.029</ele><time>2026-04-21T02:17:56.000Z</time></trkpt>
   <trkpt lat="59.0815467781" lon="29.9853445147"><ele>89.809</ele><time>2026-04-21T02:18:08.000Z</time></trkpt>
   <trkpt lat="59.0816410745" lon="29.9853513878"><ele>88.899</ele><time>2026-04-21T02:18:24.000Z</time></trkpt>
   <trkpt lat="59.0816262385" lon="29.9852870148"><ele>86.949</ele><time>2026-04-21T02:19:02.000Z</time></trkpt>
   <trkpt lat="59.0816197844" lon="29.98540872"><ele>84.599</ele><time>2026-04-21T02:19:32.000Z</time></trkpt>
   <trkpt lat="59.0816239754" lon="29.9853569199"><ele>82.249</ele><time>2026-04-21T02:20:06.000Z</time></trkpt>
   <trkpt lat="59.0816312676" lon="29.9853979912"><ele>82.799</ele><time>2026-04-21T02:20:49.000Z</time></trkpt>
   <trkpt lat="59.081660269" lon="29.9853898608"><ele>82.179</ele><time>2026-04-21T02:21:36.000Z</time></trkpt>
   <trkpt lat="59.0817013404" lon="29.9854166828"><ele>81.419</ele><time>2026-04-21T02:21:58.000Z</time></trkpt>
   <trkpt lat="59.0817962235" lon="29.9854704947"><ele>81.569</ele><time>2026-04-21T02:22:18.000Z</time></trkpt>
   <trkpt lat="59.0818530528" lon="29.9855316826"><ele>82.479</ele><time>2026-04-21T02:22:31.000Z</time></trkpt>
   <trkpt lat="59.0819120614" lon="29.9855714966"><ele>84.319</ele><time>2026-04-21T02:22:49.000Z</time></trkpt>
   <trkpt lat="59.0819746742" lon="29.9856146634"><ele>85.049</ele><time>2026-04-21T02:23:07.000Z</time></trkpt>
   <trkpt lat="59.0820312521" lon="29.9855970614"><ele>82.509</ele><time>2026-04-21T02:23:37.000Z</time></trkpt>
   <trkpt lat="59.0820950383" lon="29.9855657131"><ele>82.969</ele><time>2026-04-21T02:23:52.000Z</time></trkpt>
   <trkpt lat="59.0821750855" lon="29.9855781183"><ele>80.979</ele><time>2026-04-21T02:24:09.000Z</time></trkpt>
   <trkpt lat="59.0821820425" lon="29.9855677247"><ele>81.489</ele><time>2026-04-21T02:24:29.000Z</time></trkpt>
   <trkpt lat="59.0822560547" lon="29.9854691536"><ele>81.619</ele><time>2026-04-21T02:24:45.000Z</time></trkpt>
   <trkpt lat="59.0823021552" lon="29.9854264059"><ele>81.399</ele><time>2026-04-21T02:24:58.000Z</time></trkpt>
   <trkpt lat="59.0823361857" lon="29.9854086362"><ele>81.889</ele><time>2026-04-21T02:25:12.000Z</time></trkpt>
   <trkpt lat="59.0823371915" lon="29.9853848316"><ele>81.029</ele><time>2026-04-21T02:25:25.000Z</time></trkpt>
   <trkpt lat="59.0823965354" lon="29.98540872"><ele>81.269</ele><time>2026-04-21T02:25:50.000Z</time></trkpt>
   <trkpt lat="59.0825043267" lon="29.9853904475"><ele>81.809</ele><time>2026-04-21T02:26:03.000Z</time></trkpt>
   <trkpt lat="59.0825694541" lon="29.9853775394"><ele>80.999</ele><time>2026-04-21T02:26:18.000Z</time></trkpt>
   <trkpt lat="59.0826162251" lon="29.9853418325"><ele>80.549</ele><time>2026-04-21T02:26:33.000Z</time></trkpt>
   <trkpt lat="59.0826779159" lon="29.9854000029"><ele>79.669</ele><time>2026-04-21T02:26:50.000Z</time></trkpt>
   <trkpt lat="59.0827255251" lon="29.9853728455"><ele>79.579</ele><time>2026-04-21T02:27:06.000Z</time></trkpt>
   <trkpt lat="59.0827431271" lon="29.985383742"><ele>80.119</ele><time>2026-04-21T02:27:23.000Z</time></trkpt>
   <trkpt lat="59.0827480724" lon="29.9853727617"><ele>80.859</ele><time>2026-04-21T02:27:59.000Z</time></trkpt>
   <trkpt lat="59.0827419536" lon="29.9853801378"><ele>80.729</ele><time>2026-04-21T02:29:04.000Z</time></trkpt>
   <trkpt lat="59.0827597233" lon="29.9853793834"><ele>81.169</ele><time>2026-04-21T02:30:29.000Z</time></trkpt>
   <trkpt lat="59.082754275" lon="29.9853697442"><ele>81.149</ele><time>2026-04-21T02:31:21.000Z</time></trkpt>
   <trkpt lat="59.0828420336" lon="29.9853709177"><ele>81.669</ele><time>2026-04-21T02:31:41.000Z</time></trkpt>
   <trkpt lat="59.082908083" lon="29.9853909504"><ele>80.509</ele><time>2026-04-21T02:31:53.000Z</time></trkpt>
   <trkpt lat="59.0829320552" lon="29.9854033556"><ele>80.609</ele><time>2026-04-21T02:32:08.000Z</time></trkpt>
   <trkpt lat="59.0829945842" lon="29.9854245618"><ele>80.659</ele><time>2026-04-21T02:32:19.000Z</time></trkpt>
   <trkpt lat="59.0830445403" lon="29.985456916"><ele>80.929</ele><time>2026-04-21T02:32:27.000Z</time></trkpt>
   <trkpt lat="59.0830658304" lon="29.9854606878"><ele>80.789</ele><time>2026-04-21T02:32:31.000Z</time></trkpt>
   <trkpt lat="59.083093323" lon="29.9854267411"><ele>80.849</ele><time>2026-04-21T02:32:34.000Z</time></trkpt>
   <trkpt lat="59.0831165409" lon="29.9854386434"><ele>79.939</ele><time>2026-04-21T02:32:49.000Z</time></trkpt>
   <trkpt lat="59.0831439497" lon="29.9854720872"><ele>78.639</ele><time>2026-04-21T02:33:09.000Z</time></trkpt>
   <trkpt lat="59.0832293613" lon="29.9855320178"><ele>78.029</ele><time>2026-04-21T02:33:21.000Z</time></trkpt>
   <trkpt lat="59.0832761323" lon="29.9856064491"><ele>78.259</ele><time>2026-04-21T02:33:31.000Z</time></trkpt>
   <trkpt lat="59.0833055528" lon="29.985616256"><ele>77.949</ele><time>2026-04-21T02:33:47.000Z</time></trkpt>
   <trkpt lat="59.0832971709" lon="29.9856134899"><ele>77.899</ele><time>2026-04-21T02:34:15.000Z</time></trkpt>
   <trkpt lat="59.0833402539" lon="29.9856553156"><ele>76.759</ele><time>2026-04-21T02:34:28.000Z</time></trkpt>
   <trkpt lat="59.0834010227" lon="29.9856802937"><ele>77.379</ele><time>2026-04-21T02:34:43.000Z</time></trkpt>
   <trkpt lat="59.0834500568" lon="29.9856813834"><ele>77.779</ele><time>2026-04-21T02:35:09.000Z</time></trkpt>
   <trkpt lat="59.0835503882" lon="29.9856937047"><ele>77.869</ele><time>2026-04-21T02:35:23.000Z</time></trkpt>
   <trkpt lat="59.0835993385" lon="29.9857235443"><ele>77.849</ele><time>2026-04-21T02:35:36.000Z</time></trkpt>
   <trkpt lat="59.0836525636" lon="29.9857333512"><ele>78.109</ele><time>2026-04-21T02:35:51.000Z</time></trkpt>
   <trkpt lat="59.0837155117" lon="29.9857879173"><ele>79.149</ele><time>2026-04-21T02:36:06.000Z</time></trkpt>
   <trkpt lat="59.0837919546" lon="29.9858355266"><ele>80.369</ele><time>2026-04-21T02:36:17.000Z</time></trkpt>
   <trkpt lat="59.0838182738" lon="29.985901995"><ele>80.219</ele><time>2026-04-21T02:36:28.000Z</time></trkpt>
   <trkpt lat="59.083810311" lon="29.9859192618"><ele>78.899</ele><time>2026-04-21T02:36:53.000Z</time></trkpt>
   <trkpt lat="59.0838247279" lon="29.985917753"><ele>79.429</ele><time>2026-04-21T02:37:11.000Z</time></trkpt>
   <trkpt lat="59.0838186091" lon="29.9859317508"><ele>79.239</ele><time>2026-04-21T02:38:07.000Z</time></trkpt>
   <trkpt lat="59.0838164298" lon="29.9859306612"><ele>78.729</ele><time>2026-04-21T02:39:09.000Z</time></trkpt>
   <trkpt lat="59.0838166813" lon="29.9859365285"><ele>79.099</ele><time>2026-04-21T02:40:12.000Z</time></trkpt>
   <trkpt lat="59.0838786235" lon="29.9859542143"><ele>78.699</ele><time>2026-04-21T02:40:38.000Z</time></trkpt>
   <trkpt lat="59.0839815533" lon="29.9859710619"><ele>79.759</ele><time>2026-04-21T02:40:54.000Z</time></trkpt>
   <trkpt lat="59.08402011" lon="29.9859374505"><ele>78.539</ele><time>2026-04-21T02:41:14.000Z</time></trkpt>
   <trkpt lat="59.0841070304" lon="29.9859040905"><ele>78.579</ele><time>2026-04-21T02:41:26.000Z</time></trkpt>
   <trkpt lat="59.0841556454" lon="29.985900151"><ele>78.979</ele><time>2026-04-21T02:42:14.000Z</time></trkpt>
   <trkpt lat="59.0841738342" lon="29.9859082815"><ele>79.299</ele><time>2026-04-21T02:42:52.000Z</time></trkpt>
   <trkpt lat="59.0842072779" lon="29.9858550564"><ele>80.029</ele><time>2026-04-21T02:43:09.000Z</time></trkpt>
   <trkpt lat="59.0842520373" lon="29.9858284858"><ele>79.839</ele><time>2026-04-21T02:43:21.000Z</time></trkpt>
   <trkpt lat="59.0843134767" lon="29.985803843"><ele>80.569</ele><time>2026-04-21T02:43:33.000Z</time></trkpt>
   <trkpt lat="59.0844011514" lon="29.9858287372"><ele>80.739</ele><time>2026-04-21T02:43:47.000Z</time></trkpt>
   <trkpt lat="59.0844634289" lon="29.9858162482"><ele>81.009</ele><time>2026-04-21T02:44:06.000Z</time></trkpt>
   <trkpt lat="59.0844951125" lon="29.985849692"><ele>79.489</ele><time>2026-04-21T02:44:29.000Z</time></trkpt>
   <trkpt lat="59.0845492596" lon="29.98587006"><ele>80.839</ele><time>2026-04-21T02:44:52.000Z</time></trkpt>
   <trkpt lat="59.0846423825" lon="29.9858496081"><ele>79.719</ele><time>2026-04-21T02:45:18.000Z</time></trkpt>
   <trkpt lat="59.0847646745" lon="29.9858475127"><ele>80.069</ele><time>2026-04-21T02:45:59.000Z</time></trkpt>
   <trkpt lat="59.0848733878" lon="29.9858674616"><ele>81.059</ele><time>2026-04-21T02:46:31.000Z</time></trkpt>
   <trkpt lat="59.0849353301" lon="29.9859058507"><ele>81.109</ele><time>2026-04-21T02:46:52.000Z</time></trkpt>
   <trkpt lat="59.0849799218" lon="29.9858719878"><ele>81.739</ele><time>2026-04-21T02:47:27.000Z</time></trkpt>
   <trkpt lat="59.0850081688" lon="29.9858548049"><ele>83.129</ele><time>2026-04-21T02:47:53.000Z</time></trkpt>
   <trkpt lat="59.0850581249" lon="29.9858377058"><ele>82.159</ele><time>2026-04-21T02:48:18.000Z</time></trkpt>
   <trkpt lat="59.085108584" lon="29.9858387117"><ele>81.939</ele><time>2026-04-21T02:48:39.000Z</time></trkpt>
   <trkpt lat="59.0851380883" lon="29.985812644"><ele>83.319</ele><time>2026-04-21T02:48:54.000Z</time></trkpt>
   <trkpt lat="59.0851621444" lon="29.9857843131"><ele>84.759</ele><time>2026-04-21T02:49:30.000Z</time></trkpt>
   <trkpt lat="59.0851865357" lon="29.9857558147"><ele>84.589</ele><time>2026-04-21T02:49:54.000Z</time></trkpt>
   <trkpt lat="59.0852107594" lon="29.9857268133"><ele>82.909</ele><time>2026-04-21T02:50:39.000Z</time></trkpt>
   <trkpt lat="59.0852310436" lon="29.9858043459"><ele>82.009</ele><time>2026-04-21T02:51:47.000Z</time></trkpt>
   <trkpt lat="59.0853608793" lon="29.9859016598"><ele>82.939</ele><time>2026-04-21T02:52:12.000Z</time></trkpt>
   <trkpt lat="59.0854503142" lon="29.9859428987"><ele>82.189</ele><time>2026-04-21T02:52:34.000Z</time></trkpt>
   <trkpt lat="59.0855276792" lon="29.986002997"><ele>83.279</ele><time>2026-04-21T02:52:54.000Z</time></trkpt>
   <trkpt lat="59.0856050441" lon="29.98600065"><ele>82.849</ele><time>2026-04-21T02:53:17.000Z</time></trkpt>
   <trkpt lat="59.085771844" lon="29.9860957008"><ele>82.429</ele><time>2026-04-21T02:53:50.000Z</time></trkpt>
   <trkpt lat="59.0859044457" lon="29.9860967905"><ele>83.049</ele><time>2026-04-21T02:54:24.000Z</time></trkpt>
   <trkpt lat="59.0860601815" lon="29.9861306534"><ele>82.999</ele><time>2026-04-21T02:54:40.000Z</time></trkpt>
   <trkpt lat="59.0861302542" lon="29.9861971219"><ele>83.269</ele><time>2026-04-21T02:54:58.000Z</time></trkpt>
   <trkpt lat="59.0862140732" lon="29.9861969542"><ele>83.749</ele><time>2026-04-21T02:55:13.000Z</time></trkpt>
   <trkpt lat="59.0862588326" lon="29.9862502631"><ele>83.889</ele><time>2026-04-21T02:55:33.000Z</time></trkpt>
   <trkpt lat="59.0863205234" lon="29.9862711341"><ele>84.729</ele><time>2026-04-21T02:55:53.000Z</time></trkpt>
   <trkpt lat="59.0863730779" lon="29.9862815276"><ele>85.389</ele><time>2026-04-21T02:56:07.000Z</time></trkpt>
   <trkpt lat="59.0863919372" lon="29.9862451502"><ele>88.029</ele><time>2026-04-21T02:56:38.000Z</time></trkpt>
   <trkpt lat="59.0863827171" lon="29.9862343375"><ele>88.549</ele><time>2026-04-21T02:57:10.000Z</time></trkpt>
   <trkpt lat="59.0863844773" lon="29.9862181604"><ele>87.399</ele><time>2026-04-21T02:57:35.000Z</time></trkpt>
   <trkpt lat="59.0863651151" lon="29.9862060067"><ele>89.019</ele><time>2026-04-21T02:58:03.000Z</time></trkpt>
   <trkpt lat="59.0864404684" lon="29.9862818629"><ele>89.559</ele><time>2026-04-21T02:58:35.000Z</time></trkpt>
   <trkpt lat="59.086539291" lon="29.9862671946"><ele>89.339</ele><time>2026-04-21T02:58:49.000Z</time></trkpt>
   <trkpt lat="59.0866267143" lon="29.9862138857"><ele>88.539</ele><time>2026-04-21T02:59:03.000Z</time></trkpt>
   <trkpt lat="59.086654626" lon="29.9861593195"><ele>89.049</ele><time>2026-04-21T02:59:23.000Z</time></trkpt>
   <trkpt lat="59.0868386926" lon="29.986295693"><ele>88.429</ele><time>2026-04-21T02:59:40.000Z</time></trkpt>
   <trkpt lat="59.0869979488" lon="29.9863269575"><ele>88.009</ele><time>2026-04-21T02:59:57.000Z</time></trkpt>
   <trkpt lat="59.0871639105" lon="29.9863313161"><ele>87.789</ele><time>2026-04-21T03:00:12.000Z</time></trkpt>
   <trkpt lat="59.0873167126" lon="29.9862882331"><ele>87.639</ele><time>2026-04-21T03:00:25.000Z</time></trkpt>
   <trkpt lat="59.0874021242" lon="29.9862849642"><ele>87.669</ele><time>2026-04-21T03:00:40.000Z</time></trkpt>
   <trkpt lat="59.0875964167" lon="29.9861956969"><ele>86.739</ele><time>2026-04-21T03:00:57.000Z</time></trkpt>
   <trkpt lat="59.0877388252" lon="29.9861825373"><ele>85.559</ele><time>2026-04-21T03:01:11.000Z</time></trkpt>
   <trkpt lat="59.0878485443" lon="29.9862283864"><ele>88.479</ele><time>2026-04-21T03:01:32.000Z</time></trkpt>
   <trkpt lat="59.0880055374" lon="29.9862853833"><ele>87.949</ele><time>2026-04-21T03:01:52.000Z</time></trkpt>
   <trkpt lat="59.0880859198" lon="29.9863095232"><ele>86.919</ele><time>2026-04-21T03:02:14.000Z</time></trkpt>
   <trkpt lat="59.0882472715" lon="29.9860632629"><ele>85.979</ele><time>2026-04-21T03:02:36.000Z</time></trkpt>
   <trkpt lat="59.0884219503" lon="29.9859111313"><ele>84.289</ele><time>2026-04-21T03:03:01.000Z</time></trkpt>
   <trkpt lat="59.0885497743" lon="29.9857835588"><ele>83.719</ele><time>2026-04-21T03:03:24.000Z</time></trkpt>
   <trkpt lat="59.0889153091" lon="29.9855877575"><ele>83.629</ele><time>2026-04-21T03:03:44.000Z</time></trkpt>
   <trkpt lat="59.089101555" lon="29.9855579179"><ele>84.599</ele><time>2026-04-21T03:04:01.000Z</time></trkpt>
   <trkpt lat="59.0892261101" lon="29.9854779546"><ele>83.349</ele><time>2026-04-21T03:04:15.000Z</time></trkpt>
   <trkpt lat="59.0892307202" lon="29.9852363043"><ele>81.929</ele><time>2026-04-21T03:04:29.000Z</time></trkpt>
   <trkpt lat="59.0893086719" lon="29.9850337975"><ele>80.699</ele><time>2026-04-21T03:04:43.000Z</time></trkpt>
   <trkpt lat="59.0893389305" lon="29.9848537542"><ele>80.919</ele><time>2026-04-21T03:04:54.000Z</time></trkpt>
   <trkpt lat="59.0893210771" lon="29.984624593"><ele>81.129</ele><time>2026-04-21T03:05:07.000Z</time></trkpt>
   <trkpt lat="59.0893321412" lon="29.9844960984"><ele>81.279</ele><time>2026-04-21T03:05:14.000Z</time></trkpt>
   <trkpt lat="59.0893009605" lon="29.9843855411"><ele>81.659</ele><time>2026-04-21T03:05:21.000Z</time></trkpt>
   <trkpt lat="59.0892785808" lon="29.9842375167"><ele>80.649</ele><time>2026-04-21T03:05:36.000Z</time></trkpt>
   <trkpt lat="59.0892886391" lon="29.9842075095"><ele>80.619</ele><time>2026-04-21T03:05:41.000Z</time></trkpt>
   <trkpt lat="59.0893499108" lon="29.9839005642"><ele>80.399</ele><time>2026-04-21T03:05:55.000Z</time></trkpt>
   <trkpt lat="59.0893607235" lon="29.983812638"><ele>80.369</ele><time>2026-04-21T03:06:00.000Z</time></trkpt>
   <trkpt lat="59.0893870427" lon="29.9834937066"><ele>78.949</ele><time>2026-04-21T03:06:17.000Z</time></trkpt>
   <trkpt lat="59.089407746" lon="29.9831973225"><ele>78.909</ele><time>2026-04-21T03:06:34.000Z</time></trkpt>
   <trkpt lat="59.0894251803" lon="29.983117443"><ele>78.889</ele><time>2026-04-21T03:06:40.000Z</time></trkpt>
   <trkpt lat="59.0895153696" lon="29.9829445243"><ele>78.729</ele><time>2026-04-21T03:06:54.000Z</time></trkpt>
   <trkpt lat="59.0895369111" lon="29.9827433587"><ele>78.609</ele><time>2026-04-21T03:07:07.000Z</time></trkpt>
   <trkpt lat="59.0895641523" lon="29.9826431111"><ele>78.219</ele><time>2026-04-21T03:07:24.000Z</time></trkpt>
   <trkpt lat="59.0895741267" lon="29.9824625649"><ele>78.769</ele><time>2026-04-21T03:07:37.000Z</time></trkpt>
   <trkpt lat="59.0895699358" lon="29.982189231"><ele>78.689</ele><time>2026-04-21T03:07:52.000Z</time></trkpt>
   <trkpt lat="59.0895930698" lon="29.9820431345"><ele>78.199</ele><time>2026-04-21T03:08:04.000Z</time></trkpt>
   <trkpt lat="59.0895551836" lon="29.981881699"><ele>78.239</ele><time>2026-04-21T03:08:16.000Z</time></trkpt>
   <trkpt lat="59.0894681795" lon="29.9817288131"><ele>79.329</ele><time>2026-04-21T03:08:32.000Z</time></trkpt>
   <trkpt lat="59.0894195644" lon="29.9814609275"><ele>80.229</ele><time>2026-04-21T03:08:52.000Z</time></trkpt>
   <trkpt lat="59.0894153735" lon="29.9814029247"><ele>80.649</ele><time>2026-04-21T03:09:12.000Z</time></trkpt>
   <trkpt lat="59.0894041417" lon="29.9812414892"><ele>80.909</ele><time>2026-04-21T03:09:30.000Z</time></trkpt>
   <trkpt lat="59.0893420318" lon="29.9810242303"><ele>80.849</ele><time>2026-04-21T03:09:42.000Z</time></trkpt>
   <trkpt lat="59.0893871265" lon="29.980625587"><ele>79.599</ele><time>2026-04-21T03:10:03.000Z</time></trkpt>
   <trkpt lat="59.0893917365" lon="29.9804582004"><ele>79.299</ele><time>2026-04-21T03:10:10.000Z</time></trkpt>
   <trkpt lat="59.0894189777" lon="29.9803727888"><ele>79.369</ele><time>2026-04-21T03:10:14.000Z</time></trkpt>
   <trkpt lat="59.0894247612" lon="29.9803207372"><ele>79.399</ele><time>2026-04-21T03:10:17.000Z</time></trkpt>
   <trkpt lat="59.0894842727" lon="29.9800939229"><ele>78.629</ele><time>2026-04-21T03:10:30.000Z</time></trkpt>
   <trkpt lat="59.0894815905" lon="29.9800380156"><ele>79.419</ele><time>2026-04-21T03:10:35.000Z</time></trkpt>
   <trkpt lat="59.0894509128" lon="29.9798313179"><ele>78.949</ele><time>2026-04-21T03:10:48.000Z</time></trkpt>
   <trkpt lat="59.0894652458" lon="29.9795881588"><ele>79.159</ele><time>2026-04-21T03:11:02.000Z</time></trkpt>
   <trkpt lat="59.0894647429" lon="29.9795706407"><ele>79.159</ele><time>2026-04-21T03:11:03.000Z</time></trkpt>
   <trkpt lat="59.089429958" lon="29.9793025036"><ele>78.669</ele><time>2026-04-21T03:11:16.000Z</time></trkpt>
   <trkpt lat="59.089420235" lon="29.9790672236"><ele>78.669</ele><time>2026-04-21T03:11:29.000Z</time></trkpt>
   <trkpt lat="59.0894403516" lon="29.9788782955"><ele>78.879</ele><time>2026-04-21T03:11:43.000Z</time></trkpt>
   <trkpt lat="59.0894318858" lon="29.9785855156"><ele>78.909</ele><time>2026-04-21T03:11:56.000Z</time></trkpt>
   <trkpt lat="59.0894359091" lon="29.9785352242"><ele>78.929</ele><time>2026-04-21T03:11:58.000Z</time></trkpt>
   <trkpt lat="59.089441525" lon="29.9782673385"><ele>78.929</ele><time>2026-04-21T03:12:10.000Z</time></trkpt>
   <trkpt lat="59.0894508289" lon="29.9778540269"><ele>78.199</ele><time>2026-04-21T03:12:27.000Z</time></trkpt>
   <trkpt lat="59.0894400163" lon="29.9775415495"><ele>78.259</ele><time>2026-04-21T03:12:41.000Z</time></trkpt>
   <trkpt lat="59.0894534273" lon="29.9771393858"><ele>78.059</ele><time>2026-04-21T03:12:58.000Z</time></trkpt>
   <trkpt lat="59.0894756394" lon="29.9767751921"><ele>79.299</ele><time>2026-04-21T03:13:13.000Z</time></trkpt>
   <trkpt lat="59.0894780701" lon="29.9763887864"><ele>79.219</ele><time>2026-04-21T03:13:30.000Z</time></trkpt>
   <trkpt lat="59.0894843565" lon="29.9762077373"><ele>79.109</ele><time>2026-04-21T03:13:44.000Z</time></trkpt>
   <trkpt lat="59.0894772319" lon="29.9761841003"><ele>79.119</ele><time>2026-04-21T03:14:17.000Z</time></trkpt>
   <trkpt lat="59.0894788245" lon="29.9761938233"><ele>79.189</ele><time>2026-04-21T03:14:45.000Z</time></trkpt>
   <trkpt lat="59.0894862844" lon="29.9762188014"><ele>80.409</ele><time>2026-04-21T03:15:04.000Z</time></trkpt>
   <trkpt lat="59.0894956721" lon="29.9762513232"><ele>79.999</ele><time>2026-04-21T03:15:18.000Z</time></trkpt>
   <trkpt lat="59.0894865358" lon="29.9762078211"><ele>80.489</ele><time>2026-04-21T03:15:35.000Z</time></trkpt>
   <trkpt lat="59.089513777" lon="29.9762544245"><ele>80.909</ele><time>2026-04-21T03:15:50.000Z</time></trkpt>
   <trkpt lat="59.0894854462" lon="29.9762969207"><ele>81.489</ele><time>2026-04-21T03:16:19.000Z</time></trkpt>
  </trkseg>
 </trk>
</gpx>